<?xml version="1.0" encoding="UTF-8" standalone="no" ?>
<gpx xmlns="http://www.topografix.com/GPX/1/1" xmlns:xsi="http://www.w3.org/2001/XMLSchema-instance" xsi:schemaLocation="http://www.topografix.com/GPX/1/1 http://www.topografix.com/GPX/1/1/gpx.xsd" version="1.1" creator="VisuGPX - https://www.visugpx.com">
  <metadata>
    <name>Les chalets de Pététoz</name>
    <desc><![CDATA[Circuit au départ du parking de la Chèvrerie vers les chalets de Pététoz et retour.]]></desc>
  </metadata>
  <trk>
    <name><![CDATA[20190212152846-9ovNb]]></name>
    <trkseg>
      <trkpt lat="46.20876" lon="6.57644">
        <ele>1108.54</ele>
        <time>2019-02-08T08:40:05Z</time>
      </trkpt>
      <trkpt lat="46.20874" lon="6.57646">
        <ele>1110.46</ele>
        <time>2019-02-08T08:40:10Z</time>
      </trkpt>
      <trkpt lat="46.20872" lon="6.57648">
        <ele>1110.94</ele>
        <time>2019-02-08T08:40:14Z</time>
      </trkpt>
      <trkpt lat="46.20875" lon="6.57647">
        <ele>1112.38</ele>
        <time>2019-02-08T08:40:56Z</time>
      </trkpt>
      <trkpt lat="46.20874" lon="6.57647">
        <ele>1111.42</ele>
        <time>2019-02-08T08:41:46Z</time>
      </trkpt>
      <trkpt lat="46.20874" lon="6.57647">
        <ele>1113.34</ele>
        <time>2019-02-08T08:41:48Z</time>
      </trkpt>
      <trkpt lat="46.20874" lon="6.57647">
        <ele>1112.38</ele>
        <time>2019-02-08T08:41:50Z</time>
      </trkpt>
      <trkpt lat="46.2088" lon="6.57648">
        <ele>1112.38</ele>
        <time>2019-02-08T08:42:26Z</time>
      </trkpt>
      <trkpt lat="46.20884" lon="6.57652">
        <ele>1112.38</ele>
        <time>2019-02-08T08:42:38Z</time>
      </trkpt>
      <trkpt lat="46.20892" lon="6.57661">
        <ele>1112.86</ele>
        <time>2019-02-08T08:42:51Z</time>
      </trkpt>
      <trkpt lat="46.20893" lon="6.5767">
        <ele>1113.34</ele>
        <time>2019-02-08T08:43:02Z</time>
      </trkpt>
      <trkpt lat="46.20891" lon="6.57681">
        <ele>1113.82</ele>
        <time>2019-02-08T08:43:12Z</time>
      </trkpt>
      <trkpt lat="46.20884" lon="6.57692">
        <ele>1114.31</ele>
        <time>2019-02-08T08:43:25Z</time>
      </trkpt>
      <trkpt lat="46.20879" lon="6.57703">
        <ele>1114.79</ele>
        <time>2019-02-08T08:43:36Z</time>
      </trkpt>
      <trkpt lat="46.20873" lon="6.57711">
        <ele>1115.75</ele>
        <time>2019-02-08T08:43:48Z</time>
      </trkpt>
      <trkpt lat="46.20864" lon="6.57716">
        <ele>1116.71</ele>
        <time>2019-02-08T08:44:00Z</time>
      </trkpt>
      <trkpt lat="46.20862" lon="6.57716">
        <ele>1117.19</ele>
        <time>2019-02-08T08:44:03Z</time>
      </trkpt>
      <trkpt lat="46.20854" lon="6.57715">
        <ele>1118.15</ele>
        <time>2019-02-08T08:44:14Z</time>
      </trkpt>
      <trkpt lat="46.20847" lon="6.57709">
        <ele>1120.07</ele>
        <time>2019-02-08T08:44:26Z</time>
      </trkpt>
      <trkpt lat="46.20843" lon="6.57697">
        <ele>1121.03</ele>
        <time>2019-02-08T08:44:39Z</time>
      </trkpt>
      <trkpt lat="46.20838" lon="6.57685">
        <ele>1122</ele>
        <time>2019-02-08T08:44:52Z</time>
      </trkpt>
      <trkpt lat="46.20832" lon="6.57677">
        <ele>1123.44</ele>
        <time>2019-02-08T08:45:04Z</time>
      </trkpt>
      <trkpt lat="46.20826" lon="6.57668">
        <ele>1124.4</ele>
        <time>2019-02-08T08:45:16Z</time>
      </trkpt>
      <trkpt lat="46.20821" lon="6.57658">
        <ele>1125.84</ele>
        <time>2019-02-08T08:45:27Z</time>
      </trkpt>
      <trkpt lat="46.20816" lon="6.57644">
        <ele>1127.28</ele>
        <time>2019-02-08T08:45:41Z</time>
      </trkpt>
      <trkpt lat="46.20813" lon="6.57632">
        <ele>1129.69</ele>
        <time>2019-02-08T08:45:54Z</time>
      </trkpt>
      <trkpt lat="46.20812" lon="6.57631">
        <ele>1129.21</ele>
        <time>2019-02-08T08:45:55Z</time>
      </trkpt>
      <trkpt lat="46.20809" lon="6.57618">
        <ele>1130.17</ele>
        <time>2019-02-08T08:46:08Z</time>
      </trkpt>
      <trkpt lat="46.20805" lon="6.57606">
        <ele>1131.13</ele>
        <time>2019-02-08T08:46:19Z</time>
      </trkpt>
      <trkpt lat="46.20799" lon="6.57598">
        <ele>1132.09</ele>
        <time>2019-02-08T08:46:31Z</time>
      </trkpt>
      <trkpt lat="46.20799" lon="6.57598">
        <ele>1132.09</ele>
        <time>2019-02-08T08:46:44Z</time>
      </trkpt>
      <trkpt lat="46.20797" lon="6.57599">
        <ele>1132.09</ele>
        <time>2019-02-08T08:47:41Z</time>
      </trkpt>
      <trkpt lat="46.20797" lon="6.57599">
        <ele>1132.09</ele>
        <time>2019-02-08T08:48:13Z</time>
      </trkpt>
      <trkpt lat="46.20797" lon="6.576">
        <ele>1132.09</ele>
        <time>2019-02-08T08:49:30Z</time>
      </trkpt>
      <trkpt lat="46.20795" lon="6.57604">
        <ele>1131.61</ele>
        <time>2019-02-08T08:50:26Z</time>
      </trkpt>
      <trkpt lat="46.20791" lon="6.5761">
        <ele>1133.05</ele>
        <time>2019-02-08T08:50:36Z</time>
      </trkpt>
      <trkpt lat="46.20787" lon="6.5762">
        <ele>1134.01</ele>
        <time>2019-02-08T08:50:48Z</time>
      </trkpt>
      <trkpt lat="46.20786" lon="6.57633">
        <ele>1135.45</ele>
        <time>2019-02-08T08:51:00Z</time>
      </trkpt>
      <trkpt lat="46.20786" lon="6.57639">
        <ele>1135.94</ele>
        <time>2019-02-08T08:51:04Z</time>
      </trkpt>
      <trkpt lat="46.20783" lon="6.57652">
        <ele>1135.94</ele>
        <time>2019-02-08T08:51:16Z</time>
      </trkpt>
      <trkpt lat="46.20781" lon="6.57663">
        <ele>1136.9</ele>
        <time>2019-02-08T08:51:26Z</time>
      </trkpt>
      <trkpt lat="46.2078" lon="6.57665">
        <ele>1137.86</ele>
        <time>2019-02-08T08:51:28Z</time>
      </trkpt>
      <trkpt lat="46.20779" lon="6.57669">
        <ele>1137.86</ele>
        <time>2019-02-08T08:51:32Z</time>
      </trkpt>
      <trkpt lat="46.20777" lon="6.57679">
        <ele>1138.34</ele>
        <time>2019-02-08T08:51:40Z</time>
      </trkpt>
      <trkpt lat="46.20775" lon="6.57692">
        <ele>1139.3</ele>
        <time>2019-02-08T08:51:51Z</time>
      </trkpt>
      <trkpt lat="46.20775" lon="6.57701">
        <ele>1140.74</ele>
        <time>2019-02-08T08:52:00Z</time>
      </trkpt>
      <trkpt lat="46.20774" lon="6.57712">
        <ele>1141.7</ele>
        <time>2019-02-08T08:52:11Z</time>
      </trkpt>
      <trkpt lat="46.20772" lon="6.57721">
        <ele>1142.66</ele>
        <time>2019-02-08T08:52:22Z</time>
      </trkpt>
      <trkpt lat="46.20771" lon="6.57725">
        <ele>1143.14</ele>
        <time>2019-02-08T08:52:26Z</time>
      </trkpt>
      <trkpt lat="46.20767" lon="6.57739">
        <ele>1144.11</ele>
        <time>2019-02-08T08:52:39Z</time>
      </trkpt>
      <trkpt lat="46.20763" lon="6.5775">
        <ele>1145.55</ele>
        <time>2019-02-08T08:52:51Z</time>
      </trkpt>
      <trkpt lat="46.20762" lon="6.57752">
        <ele>1146.03</ele>
        <time>2019-02-08T08:52:54Z</time>
      </trkpt>
      <trkpt lat="46.20758" lon="6.5776">
        <ele>1147.47</ele>
        <time>2019-02-08T08:53:05Z</time>
      </trkpt>
      <trkpt lat="46.20752" lon="6.5777">
        <ele>1147.95</ele>
        <time>2019-02-08T08:53:17Z</time>
      </trkpt>
      <trkpt lat="46.20744" lon="6.57777">
        <ele>1149.87</ele>
        <time>2019-02-08T08:53:29Z</time>
      </trkpt>
      <trkpt lat="46.2074" lon="6.57783">
        <ele>1151.32</ele>
        <time>2019-02-08T08:53:40Z</time>
      </trkpt>
      <trkpt lat="46.20736" lon="6.57791">
        <ele>1152.28</ele>
        <time>2019-02-08T08:53:51Z</time>
      </trkpt>
      <trkpt lat="46.20733" lon="6.57799">
        <ele>1152.28</ele>
        <time>2019-02-08T08:54:02Z</time>
      </trkpt>
      <trkpt lat="46.20731" lon="6.57809">
        <ele>1152.76</ele>
        <time>2019-02-08T08:54:12Z</time>
      </trkpt>
      <trkpt lat="46.20729" lon="6.57814">
        <ele>1153.24</ele>
        <time>2019-02-08T08:54:18Z</time>
      </trkpt>
      <trkpt lat="46.2073" lon="6.57817">
        <ele>1153.24</ele>
        <time>2019-02-08T08:54:21Z</time>
      </trkpt>
      <trkpt lat="46.20729" lon="6.57828">
        <ele>1154.2</ele>
        <time>2019-02-08T08:54:31Z</time>
      </trkpt>
      <trkpt lat="46.2073" lon="6.5783">
        <ele>1154.2</ele>
        <time>2019-02-08T08:54:33Z</time>
      </trkpt>
      <trkpt lat="46.2073" lon="6.57839">
        <ele>1154.2</ele>
        <time>2019-02-08T08:54:40Z</time>
      </trkpt>
      <trkpt lat="46.20733" lon="6.57852">
        <ele>1154.68</ele>
        <time>2019-02-08T08:54:53Z</time>
      </trkpt>
      <trkpt lat="46.20733" lon="6.57862">
        <ele>1154.68</ele>
        <time>2019-02-08T08:55:03Z</time>
      </trkpt>
      <trkpt lat="46.20733" lon="6.57872">
        <ele>1155.16</ele>
        <time>2019-02-08T08:55:13Z</time>
      </trkpt>
      <trkpt lat="46.20734" lon="6.57875">
        <ele>1155.16</ele>
        <time>2019-02-08T08:55:17Z</time>
      </trkpt>
      <trkpt lat="46.20734" lon="6.5788">
        <ele>1156.12</ele>
        <time>2019-02-08T08:55:23Z</time>
      </trkpt>
      <trkpt lat="46.20733" lon="6.57885">
        <ele>1155.64</ele>
        <time>2019-02-08T08:55:26Z</time>
      </trkpt>
      <trkpt lat="46.20727" lon="6.57896">
        <ele>1156.12</ele>
        <time>2019-02-08T08:55:39Z</time>
      </trkpt>
      <trkpt lat="46.20721" lon="6.57907">
        <ele>1157.08</ele>
        <time>2019-02-08T08:55:52Z</time>
      </trkpt>
      <trkpt lat="46.20714" lon="6.57913">
        <ele>1158.05</ele>
        <time>2019-02-08T08:56:03Z</time>
      </trkpt>
      <trkpt lat="46.20705" lon="6.57921">
        <ele>1159.01</ele>
        <time>2019-02-08T08:56:15Z</time>
      </trkpt>
      <trkpt lat="46.20697" lon="6.57925">
        <ele>1159.49</ele>
        <time>2019-02-08T08:56:26Z</time>
      </trkpt>
      <trkpt lat="46.20688" lon="6.5793">
        <ele>1160.93</ele>
        <time>2019-02-08T08:56:37Z</time>
      </trkpt>
      <trkpt lat="46.20681" lon="6.57932">
        <ele>1162.37</ele>
        <time>2019-02-08T08:56:49Z</time>
      </trkpt>
      <trkpt lat="46.20675" lon="6.57934">
        <ele>1163.33</ele>
        <time>2019-02-08T08:57:01Z</time>
      </trkpt>
      <trkpt lat="46.20671" lon="6.57936">
        <ele>1164.77</ele>
        <time>2019-02-08T08:57:12Z</time>
      </trkpt>
      <trkpt lat="46.20668" lon="6.57944">
        <ele>1163.81</ele>
        <time>2019-02-08T08:57:24Z</time>
      </trkpt>
      <trkpt lat="46.20671" lon="6.57955">
        <ele>1163.81</ele>
        <time>2019-02-08T08:57:36Z</time>
      </trkpt>
      <trkpt lat="46.20671" lon="6.57961">
        <ele>1162.85</ele>
        <time>2019-02-08T08:57:50Z</time>
      </trkpt>
      <trkpt lat="46.2067" lon="6.57963">
        <ele>1162.85</ele>
        <time>2019-02-08T08:58:00Z</time>
      </trkpt>
      <trkpt lat="46.20669" lon="6.57973">
        <ele>1163.33</ele>
        <time>2019-02-08T08:58:12Z</time>
      </trkpt>
      <trkpt lat="46.20664" lon="6.57988">
        <ele>1163.33</ele>
        <time>2019-02-08T08:58:38Z</time>
      </trkpt>
      <trkpt lat="46.20663" lon="6.57991">
        <ele>1163.81</ele>
        <time>2019-02-08T08:58:57Z</time>
      </trkpt>
      <trkpt lat="46.20663" lon="6.57992">
        <ele>1164.29</ele>
        <time>2019-02-08T09:00:03Z</time>
      </trkpt>
      <trkpt lat="46.20663" lon="6.57992">
        <ele>1165.74</ele>
        <time>2019-02-08T09:01:45Z</time>
      </trkpt>
      <trkpt lat="46.20665" lon="6.58005">
        <ele>1164.77</ele>
        <time>2019-02-08T09:02:00Z</time>
      </trkpt>
      <trkpt lat="46.20665" lon="6.58014">
        <ele>1164.77</ele>
        <time>2019-02-08T09:02:12Z</time>
      </trkpt>
      <trkpt lat="46.20664" lon="6.58019">
        <ele>1166.22</ele>
        <time>2019-02-08T09:02:23Z</time>
      </trkpt>
      <trkpt lat="46.20656" lon="6.5804">
        <ele>1166.22</ele>
        <time>2019-02-08T09:02:35Z</time>
      </trkpt>
      <trkpt lat="46.20652" lon="6.58051">
        <ele>1168.14</ele>
        <time>2019-02-08T09:02:46Z</time>
      </trkpt>
      <trkpt lat="46.20649" lon="6.58055">
        <ele>1169.1</ele>
        <time>2019-02-08T09:02:55Z</time>
      </trkpt>
      <trkpt lat="46.20645" lon="6.58063">
        <ele>1171.02</ele>
        <time>2019-02-08T09:03:06Z</time>
      </trkpt>
      <trkpt lat="46.20641" lon="6.58073">
        <ele>1170.54</ele>
        <time>2019-02-08T09:03:17Z</time>
      </trkpt>
      <trkpt lat="46.20635" lon="6.58081">
        <ele>1170.54</ele>
        <time>2019-02-08T09:03:28Z</time>
      </trkpt>
      <trkpt lat="46.2063" lon="6.58088">
        <ele>1170.54</ele>
        <time>2019-02-08T09:03:37Z</time>
      </trkpt>
      <trkpt lat="46.20623" lon="6.58099">
        <ele>1170.06</ele>
        <time>2019-02-08T09:03:48Z</time>
      </trkpt>
      <trkpt lat="46.20619" lon="6.5811">
        <ele>1170.06</ele>
        <time>2019-02-08T09:03:59Z</time>
      </trkpt>
      <trkpt lat="46.20611" lon="6.58117">
        <ele>1171.02</ele>
        <time>2019-02-08T09:04:10Z</time>
      </trkpt>
      <trkpt lat="46.20604" lon="6.58126">
        <ele>1171.02</ele>
        <time>2019-02-08T09:04:22Z</time>
      </trkpt>
      <trkpt lat="46.20602" lon="6.58133">
        <ele>1171.5</ele>
        <time>2019-02-08T09:04:34Z</time>
      </trkpt>
      <trkpt lat="46.20602" lon="6.58137">
        <ele>1171.5</ele>
        <time>2019-02-08T09:04:44Z</time>
      </trkpt>
      <trkpt lat="46.20601" lon="6.58136">
        <ele>1171.98</ele>
        <time>2019-02-08T09:04:58Z</time>
      </trkpt>
      <trkpt lat="46.20601" lon="6.58136">
        <ele>1172.47</ele>
        <time>2019-02-08T09:05:07Z</time>
      </trkpt>
      <trkpt lat="46.20599" lon="6.5814">
        <ele>1171.98</ele>
        <time>2019-02-08T09:05:21Z</time>
      </trkpt>
      <trkpt lat="46.2059" lon="6.58145">
        <ele>1172.95</ele>
        <time>2019-02-08T09:05:32Z</time>
      </trkpt>
      <trkpt lat="46.20584" lon="6.58153">
        <ele>1173.91</ele>
        <time>2019-02-08T09:05:42Z</time>
      </trkpt>
      <trkpt lat="46.20583" lon="6.58159">
        <ele>1174.87</ele>
        <time>2019-02-08T09:05:50Z</time>
      </trkpt>
      <trkpt lat="46.20582" lon="6.58163">
        <ele>1173.91</ele>
        <time>2019-02-08T09:05:54Z</time>
      </trkpt>
      <trkpt lat="46.20577" lon="6.58166">
        <ele>1175.35</ele>
        <time>2019-02-08T09:06:02Z</time>
      </trkpt>
      <trkpt lat="46.20576" lon="6.58174">
        <ele>1175.83</ele>
        <time>2019-02-08T09:06:10Z</time>
      </trkpt>
      <trkpt lat="46.20575" lon="6.58175">
        <ele>1176.31</ele>
        <time>2019-02-08T09:06:15Z</time>
      </trkpt>
      <trkpt lat="46.20573" lon="6.58192">
        <ele>1176.79</ele>
        <time>2019-02-08T09:06:28Z</time>
      </trkpt>
      <trkpt lat="46.20569" lon="6.582">
        <ele>1177.75</ele>
        <time>2019-02-08T09:06:37Z</time>
      </trkpt>
      <trkpt lat="46.20568" lon="6.5821">
        <ele>1178.71</ele>
        <time>2019-02-08T09:06:47Z</time>
      </trkpt>
      <trkpt lat="46.20567" lon="6.58211">
        <ele>1179.19</ele>
        <time>2019-02-08T09:06:48Z</time>
      </trkpt>
      <trkpt lat="46.20563" lon="6.5822">
        <ele>1180.16</ele>
        <time>2019-02-08T09:07:02Z</time>
      </trkpt>
      <trkpt lat="46.20563" lon="6.58221">
        <ele>1180.64</ele>
        <time>2019-02-08T09:07:14Z</time>
      </trkpt>
      <trkpt lat="46.20563" lon="6.58232">
        <ele>1182.08</ele>
        <time>2019-02-08T09:07:26Z</time>
      </trkpt>
      <trkpt lat="46.20558" lon="6.58246">
        <ele>1182.56</ele>
        <time>2019-02-08T09:07:40Z</time>
      </trkpt>
      <trkpt lat="46.20555" lon="6.58255">
        <ele>1183.52</ele>
        <time>2019-02-08T09:07:53Z</time>
      </trkpt>
      <trkpt lat="46.20545" lon="6.58253">
        <ele>1183.52</ele>
        <time>2019-02-08T09:08:06Z</time>
      </trkpt>
      <trkpt lat="46.20543" lon="6.5825">
        <ele>1183.04</ele>
        <time>2019-02-08T09:08:10Z</time>
      </trkpt>
      <trkpt lat="46.20542" lon="6.58239">
        <ele>1181.12</ele>
        <time>2019-02-08T09:08:22Z</time>
      </trkpt>
      <trkpt lat="46.20542" lon="6.58238">
        <ele>1181.12</ele>
        <time>2019-02-08T09:08:23Z</time>
      </trkpt>
      <trkpt lat="46.20544" lon="6.5823">
        <ele>1180.64</ele>
        <time>2019-02-08T09:08:33Z</time>
      </trkpt>
      <trkpt lat="46.20544" lon="6.58224">
        <ele>1180.16</ele>
        <time>2019-02-08T09:08:44Z</time>
      </trkpt>
      <trkpt lat="46.20542" lon="6.58221">
        <ele>1180.16</ele>
        <time>2019-02-08T09:08:46Z</time>
      </trkpt>
      <trkpt lat="46.20537" lon="6.58218">
        <ele>1181.12</ele>
        <time>2019-02-08T09:08:56Z</time>
      </trkpt>
      <trkpt lat="46.20535" lon="6.58214">
        <ele>1183.04</ele>
        <time>2019-02-08T09:09:10Z</time>
      </trkpt>
      <trkpt lat="46.20535" lon="6.58208">
        <ele>1184</ele>
        <time>2019-02-08T09:09:23Z</time>
      </trkpt>
      <trkpt lat="46.20527" lon="6.58201">
        <ele>1184.96</ele>
        <time>2019-02-08T09:09:35Z</time>
      </trkpt>
      <trkpt lat="46.20518" lon="6.58196">
        <ele>1184.48</ele>
        <time>2019-02-08T09:09:48Z</time>
      </trkpt>
      <trkpt lat="46.20512" lon="6.58196">
        <ele>1185.44</ele>
        <time>2019-02-08T09:10:03Z</time>
      </trkpt>
      <trkpt lat="46.20512" lon="6.58196">
        <ele>1186.88</ele>
        <time>2019-02-08T09:10:16Z</time>
      </trkpt>
      <trkpt lat="46.20502" lon="6.58195">
        <ele>1186.88</ele>
        <time>2019-02-08T09:10:25Z</time>
      </trkpt>
      <trkpt lat="46.20497" lon="6.58184">
        <ele>1187.37</ele>
        <time>2019-02-08T09:10:37Z</time>
      </trkpt>
      <trkpt lat="46.20492" lon="6.5818">
        <ele>1187.37</ele>
        <time>2019-02-08T09:10:51Z</time>
      </trkpt>
      <trkpt lat="46.20492" lon="6.5818">
        <ele>1188.33</ele>
        <time>2019-02-08T09:11:13Z</time>
      </trkpt>
      <trkpt lat="46.20491" lon="6.58179">
        <ele>1187.37</ele>
        <time>2019-02-08T09:12:17Z</time>
      </trkpt>
      <trkpt lat="46.20491" lon="6.58176">
        <ele>1188.33</ele>
        <time>2019-02-08T09:12:31Z</time>
      </trkpt>
      <trkpt lat="46.20491" lon="6.58175">
        <ele>1186.88</ele>
        <time>2019-02-08T09:12:44Z</time>
      </trkpt>
      <trkpt lat="46.20491" lon="6.58175">
        <ele>1187.85</ele>
        <time>2019-02-08T09:13:07Z</time>
      </trkpt>
      <trkpt lat="46.2049" lon="6.58175">
        <ele>1187.37</ele>
        <time>2019-02-08T09:15:05Z</time>
      </trkpt>
      <trkpt lat="46.20489" lon="6.58175">
        <ele>1187.85</ele>
        <time>2019-02-08T09:15:50Z</time>
      </trkpt>
      <trkpt lat="46.20486" lon="6.58173">
        <ele>1188.33</ele>
        <time>2019-02-08T09:16:00Z</time>
      </trkpt>
      <trkpt lat="46.2048" lon="6.58182">
        <ele>1189.77</ele>
        <time>2019-02-08T09:16:10Z</time>
      </trkpt>
      <trkpt lat="46.20478" lon="6.58193">
        <ele>1190.25</ele>
        <time>2019-02-08T09:16:20Z</time>
      </trkpt>
      <trkpt lat="46.20472" lon="6.58199">
        <ele>1191.21</ele>
        <time>2019-02-08T09:16:33Z</time>
      </trkpt>
      <trkpt lat="46.20469" lon="6.58201">
        <ele>1192.17</ele>
        <time>2019-02-08T09:16:40Z</time>
      </trkpt>
      <trkpt lat="46.20464" lon="6.58202">
        <ele>1193.13</ele>
        <time>2019-02-08T09:16:51Z</time>
      </trkpt>
      <trkpt lat="46.20459" lon="6.58206">
        <ele>1193.61</ele>
        <time>2019-02-08T09:17:01Z</time>
      </trkpt>
      <trkpt lat="46.20455" lon="6.5821">
        <ele>1195.06</ele>
        <time>2019-02-08T09:17:12Z</time>
      </trkpt>
      <trkpt lat="46.20453" lon="6.58214">
        <ele>1196.02</ele>
        <time>2019-02-08T09:17:25Z</time>
      </trkpt>
      <trkpt lat="46.20452" lon="6.58216">
        <ele>1196.5</ele>
        <time>2019-02-08T09:17:37Z</time>
      </trkpt>
      <trkpt lat="46.20452" lon="6.58216">
        <ele>1198.42</ele>
        <time>2019-02-08T09:17:48Z</time>
      </trkpt>
      <trkpt lat="46.20452" lon="6.58218">
        <ele>1198.9</ele>
        <time>2019-02-08T09:17:59Z</time>
      </trkpt>
      <trkpt lat="46.20444" lon="6.58234">
        <ele>1200.34</ele>
        <time>2019-02-08T09:18:11Z</time>
      </trkpt>
      <trkpt lat="46.20437" lon="6.58246">
        <ele>1201.3</ele>
        <time>2019-02-08T09:18:23Z</time>
      </trkpt>
      <trkpt lat="46.20435" lon="6.58246">
        <ele>1201.79</ele>
        <time>2019-02-08T09:18:27Z</time>
      </trkpt>
      <trkpt lat="46.20428" lon="6.5824">
        <ele>1201.79</ele>
        <time>2019-02-08T09:18:35Z</time>
      </trkpt>
      <trkpt lat="46.20419" lon="6.58237">
        <ele>1202.27</ele>
        <time>2019-02-08T09:18:46Z</time>
      </trkpt>
      <trkpt lat="46.20418" lon="6.58235">
        <ele>1202.27</ele>
        <time>2019-02-08T09:18:48Z</time>
      </trkpt>
      <trkpt lat="46.20411" lon="6.58233">
        <ele>1203.23</ele>
        <time>2019-02-08T09:19:00Z</time>
      </trkpt>
      <trkpt lat="46.20408" lon="6.58235">
        <ele>1204.67</ele>
        <time>2019-02-08T09:19:14Z</time>
      </trkpt>
      <trkpt lat="46.20402" lon="6.58238">
        <ele>1206.11</ele>
        <time>2019-02-08T09:19:26Z</time>
      </trkpt>
      <trkpt lat="46.20396" lon="6.58234">
        <ele>1207.55</ele>
        <time>2019-02-08T09:19:42Z</time>
      </trkpt>
      <trkpt lat="46.2039" lon="6.58232">
        <ele>1208.51</ele>
        <time>2019-02-08T09:19:53Z</time>
      </trkpt>
      <trkpt lat="46.20386" lon="6.58231">
        <ele>1209.48</ele>
        <time>2019-02-08T09:20:03Z</time>
      </trkpt>
      <trkpt lat="46.20386" lon="6.58228">
        <ele>1209.96</ele>
        <time>2019-02-08T09:20:14Z</time>
      </trkpt>
      <trkpt lat="46.20388" lon="6.58218">
        <ele>1212.36</ele>
        <time>2019-02-08T09:20:30Z</time>
      </trkpt>
      <trkpt lat="46.20385" lon="6.5821">
        <ele>1213.32</ele>
        <time>2019-02-08T09:20:42Z</time>
      </trkpt>
      <trkpt lat="46.20381" lon="6.58196">
        <ele>1213.32</ele>
        <time>2019-02-08T09:20:53Z</time>
      </trkpt>
      <trkpt lat="46.20378" lon="6.58184">
        <ele>1214.28</ele>
        <time>2019-02-08T09:21:04Z</time>
      </trkpt>
      <trkpt lat="46.20375" lon="6.58174">
        <ele>1215.72</ele>
        <time>2019-02-08T09:21:16Z</time>
      </trkpt>
      <trkpt lat="46.20367" lon="6.58166">
        <ele>1216.69</ele>
        <time>2019-02-08T09:21:27Z</time>
      </trkpt>
      <trkpt lat="46.20361" lon="6.58161">
        <ele>1217.65</ele>
        <time>2019-02-08T09:21:40Z</time>
      </trkpt>
      <trkpt lat="46.20355" lon="6.58159">
        <ele>1218.61</ele>
        <time>2019-02-08T09:21:50Z</time>
      </trkpt>
      <trkpt lat="46.20351" lon="6.58159">
        <ele>1219.09</ele>
        <time>2019-02-08T09:21:59Z</time>
      </trkpt>
      <trkpt lat="46.20351" lon="6.58159">
        <ele>1219.09</ele>
        <time>2019-02-08T09:22:15Z</time>
      </trkpt>
      <trkpt lat="46.20352" lon="6.58159">
        <ele>1218.13</ele>
        <time>2019-02-08T09:22:52Z</time>
      </trkpt>
      <trkpt lat="46.2035" lon="6.58159">
        <ele>1218.61</ele>
        <time>2019-02-08T09:26:00Z</time>
      </trkpt>
      <trkpt lat="46.2035" lon="6.58158">
        <ele>1218.61</ele>
        <time>2019-02-08T09:26:39Z</time>
      </trkpt>
      <trkpt lat="46.20343" lon="6.58159">
        <ele>1218.61</ele>
        <time>2019-02-08T09:27:29Z</time>
      </trkpt>
      <trkpt lat="46.20338" lon="6.58163">
        <ele>1219.09</ele>
        <time>2019-02-08T09:27:35Z</time>
      </trkpt>
      <trkpt lat="46.20336" lon="6.58164">
        <ele>1220.05</ele>
        <time>2019-02-08T09:27:40Z</time>
      </trkpt>
      <trkpt lat="46.20329" lon="6.58169">
        <ele>1220.53</ele>
        <time>2019-02-08T09:27:52Z</time>
      </trkpt>
      <trkpt lat="46.20326" lon="6.58176">
        <ele>1221.97</ele>
        <time>2019-02-08T09:28:03Z</time>
      </trkpt>
      <trkpt lat="46.20324" lon="6.5818">
        <ele>1221.97</ele>
        <time>2019-02-08T09:28:08Z</time>
      </trkpt>
      <trkpt lat="46.2032" lon="6.58187">
        <ele>1223.42</ele>
        <time>2019-02-08T09:28:19Z</time>
      </trkpt>
      <trkpt lat="46.20316" lon="6.58199">
        <ele>1224.38</ele>
        <time>2019-02-08T09:28:29Z</time>
      </trkpt>
      <trkpt lat="46.20318" lon="6.58215">
        <ele>1225.34</ele>
        <time>2019-02-08T09:28:42Z</time>
      </trkpt>
      <trkpt lat="46.20319" lon="6.58217">
        <ele>1225.82</ele>
        <time>2019-02-08T09:28:46Z</time>
      </trkpt>
      <trkpt lat="46.20321" lon="6.58234">
        <ele>1227.26</ele>
        <time>2019-02-08T09:28:59Z</time>
      </trkpt>
      <trkpt lat="46.20322" lon="6.58245">
        <ele>1228.22</ele>
        <time>2019-02-08T09:29:10Z</time>
      </trkpt>
      <trkpt lat="46.20327" lon="6.58255">
        <ele>1229.66</ele>
        <time>2019-02-08T09:29:22Z</time>
      </trkpt>
      <trkpt lat="46.2033" lon="6.58264">
        <ele>1230.14</ele>
        <time>2019-02-08T09:29:32Z</time>
      </trkpt>
      <trkpt lat="46.20334" lon="6.58268">
        <ele>1231.59</ele>
        <time>2019-02-08T09:29:43Z</time>
      </trkpt>
      <trkpt lat="46.20339" lon="6.58272">
        <ele>1232.55</ele>
        <time>2019-02-08T09:29:55Z</time>
      </trkpt>
      <trkpt lat="46.20343" lon="6.58276">
        <ele>1233.51</ele>
        <time>2019-02-08T09:30:03Z</time>
      </trkpt>
      <trkpt lat="46.20351" lon="6.58279">
        <ele>1235.43</ele>
        <time>2019-02-08T09:30:15Z</time>
      </trkpt>
      <trkpt lat="46.20363" lon="6.58286">
        <ele>1236.87</ele>
        <time>2019-02-08T09:30:29Z</time>
      </trkpt>
      <trkpt lat="46.20364" lon="6.58287">
        <ele>1237.35</ele>
        <time>2019-02-08T09:30:32Z</time>
      </trkpt>
      <trkpt lat="46.20372" lon="6.58294">
        <ele>1238.32</ele>
        <time>2019-02-08T09:30:43Z</time>
      </trkpt>
      <trkpt lat="46.20379" lon="6.58301">
        <ele>1239.76</ele>
        <time>2019-02-08T09:30:54Z</time>
      </trkpt>
      <trkpt lat="46.20386" lon="6.58309">
        <ele>1241.2</ele>
        <time>2019-02-08T09:31:05Z</time>
      </trkpt>
      <trkpt lat="46.20391" lon="6.58318">
        <ele>1241.68</ele>
        <time>2019-02-08T09:31:16Z</time>
      </trkpt>
      <trkpt lat="46.20393" lon="6.58322">
        <ele>1242.16</ele>
        <time>2019-02-08T09:31:20Z</time>
      </trkpt>
      <trkpt lat="46.20393" lon="6.5833">
        <ele>1242.64</ele>
        <time>2019-02-08T09:31:26Z</time>
      </trkpt>
      <trkpt lat="46.20393" lon="6.58334">
        <ele>1242.64</ele>
        <time>2019-02-08T09:31:29Z</time>
      </trkpt>
      <trkpt lat="46.20389" lon="6.58341">
        <ele>1244.08</ele>
        <time>2019-02-08T09:31:37Z</time>
      </trkpt>
      <trkpt lat="46.2038" lon="6.58345">
        <ele>1244.08</ele>
        <time>2019-02-08T09:31:47Z</time>
      </trkpt>
      <trkpt lat="46.20378" lon="6.58345">
        <ele>1244.08</ele>
        <time>2019-02-08T09:31:54Z</time>
      </trkpt>
      <trkpt lat="46.20374" lon="6.58347">
        <ele>1244.56</ele>
        <time>2019-02-08T09:31:58Z</time>
      </trkpt>
      <trkpt lat="46.20368" lon="6.58348">
        <ele>1245.04</ele>
        <time>2019-02-08T09:32:08Z</time>
      </trkpt>
      <trkpt lat="46.20368" lon="6.58348">
        <ele>1245.04</ele>
        <time>2019-02-08T09:32:10Z</time>
      </trkpt>
      <trkpt lat="46.20352" lon="6.58357">
        <ele>1245.53</ele>
        <time>2019-02-08T09:32:21Z</time>
      </trkpt>
      <trkpt lat="46.20348" lon="6.58361">
        <ele>1246.01</ele>
        <time>2019-02-08T09:32:26Z</time>
      </trkpt>
      <trkpt lat="46.20344" lon="6.58365">
        <ele>1246.01</ele>
        <time>2019-02-08T09:32:31Z</time>
      </trkpt>
      <trkpt lat="46.20336" lon="6.58372">
        <ele>1245.53</ele>
        <time>2019-02-08T09:32:40Z</time>
      </trkpt>
      <trkpt lat="46.20325" lon="6.58375">
        <ele>1246.01</ele>
        <time>2019-02-08T09:32:52Z</time>
      </trkpt>
      <trkpt lat="46.20321" lon="6.58368">
        <ele>1246.01</ele>
        <time>2019-02-08T09:33:04Z</time>
      </trkpt>
      <trkpt lat="46.20319" lon="6.58366">
        <ele>1246.97</ele>
        <time>2019-02-08T09:33:20Z</time>
      </trkpt>
      <trkpt lat="46.20318" lon="6.58366">
        <ele>1247.45</ele>
        <time>2019-02-08T09:33:42Z</time>
      </trkpt>
      <trkpt lat="46.20319" lon="6.58365">
        <ele>1247.45</ele>
        <time>2019-02-08T09:34:47Z</time>
      </trkpt>
      <trkpt lat="46.20316" lon="6.58363">
        <ele>1247.45</ele>
        <time>2019-02-08T09:35:19Z</time>
      </trkpt>
      <trkpt lat="46.20319" lon="6.58365">
        <ele>1246.97</ele>
        <time>2019-02-08T09:35:42Z</time>
      </trkpt>
      <trkpt lat="46.20319" lon="6.58365">
        <ele>1247.45</ele>
        <time>2019-02-08T09:36:20Z</time>
      </trkpt>
      <trkpt lat="46.20319" lon="6.58364">
        <ele>1246.97</ele>
        <time>2019-02-08T09:38:00Z</time>
      </trkpt>
      <trkpt lat="46.20318" lon="6.58363">
        <ele>1247.93</ele>
        <time>2019-02-08T09:38:25Z</time>
      </trkpt>
      <trkpt lat="46.20318" lon="6.58363">
        <ele>1248.41</ele>
        <time>2019-02-08T09:40:05Z</time>
      </trkpt>
      <trkpt lat="46.20319" lon="6.58371">
        <ele>1248.89</ele>
        <time>2019-02-08T09:42:02Z</time>
      </trkpt>
      <trkpt lat="46.20319" lon="6.58373">
        <ele>1248.41</ele>
        <time>2019-02-08T09:42:04Z</time>
      </trkpt>
      <trkpt lat="46.20318" lon="6.58385">
        <ele>1247.93</ele>
        <time>2019-02-08T09:42:14Z</time>
      </trkpt>
      <trkpt lat="46.20313" lon="6.58389">
        <ele>1248.41</ele>
        <time>2019-02-08T09:42:22Z</time>
      </trkpt>
      <trkpt lat="46.2031" lon="6.58393">
        <ele>1248.41</ele>
        <time>2019-02-08T09:42:25Z</time>
      </trkpt>
      <trkpt lat="46.20309" lon="6.58394">
        <ele>1248.41</ele>
        <time>2019-02-08T09:42:26Z</time>
      </trkpt>
      <trkpt lat="46.20302" lon="6.58402">
        <ele>1247.93</ele>
        <time>2019-02-08T09:42:34Z</time>
      </trkpt>
      <trkpt lat="46.203" lon="6.58404">
        <ele>1248.41</ele>
        <time>2019-02-08T09:42:36Z</time>
      </trkpt>
      <trkpt lat="46.20298" lon="6.58406">
        <ele>1248.41</ele>
        <time>2019-02-08T09:42:38Z</time>
      </trkpt>
      <trkpt lat="46.20292" lon="6.58411">
        <ele>1248.89</ele>
        <time>2019-02-08T09:42:45Z</time>
      </trkpt>
      <trkpt lat="46.20284" lon="6.58417">
        <ele>1248.89</ele>
        <time>2019-02-08T09:42:56Z</time>
      </trkpt>
      <trkpt lat="46.20276" lon="6.58421">
        <ele>1248.89</ele>
        <time>2019-02-08T09:43:03Z</time>
      </trkpt>
      <trkpt lat="46.20265" lon="6.58429">
        <ele>1248.89</ele>
        <time>2019-02-08T09:43:14Z</time>
      </trkpt>
      <trkpt lat="46.20254" lon="6.58436">
        <ele>1249.37</ele>
        <time>2019-02-08T09:43:26Z</time>
      </trkpt>
      <trkpt lat="46.20247" lon="6.58441">
        <ele>1249.37</ele>
        <time>2019-02-08T09:43:36Z</time>
      </trkpt>
      <trkpt lat="46.20239" lon="6.58447">
        <ele>1249.85</ele>
        <time>2019-02-08T09:43:46Z</time>
      </trkpt>
      <trkpt lat="46.20231" lon="6.58451">
        <ele>1250.33</ele>
        <time>2019-02-08T09:43:55Z</time>
      </trkpt>
      <trkpt lat="46.20225" lon="6.58454">
        <ele>1250.33</ele>
        <time>2019-02-08T09:44:06Z</time>
      </trkpt>
      <trkpt lat="46.20218" lon="6.58459">
        <ele>1250.81</ele>
        <time>2019-02-08T09:44:15Z</time>
      </trkpt>
      <trkpt lat="46.20217" lon="6.58459">
        <ele>1250.81</ele>
        <time>2019-02-08T09:44:16Z</time>
      </trkpt>
      <trkpt lat="46.20209" lon="6.58466">
        <ele>1251.77</ele>
        <time>2019-02-08T09:44:28Z</time>
      </trkpt>
      <trkpt lat="46.20205" lon="6.5847">
        <ele>1252.25</ele>
        <time>2019-02-08T09:44:33Z</time>
      </trkpt>
      <trkpt lat="46.20204" lon="6.58471">
        <ele>1252.74</ele>
        <time>2019-02-08T09:44:35Z</time>
      </trkpt>
      <trkpt lat="46.20203" lon="6.58475">
        <ele>1253.22</ele>
        <time>2019-02-08T09:44:39Z</time>
      </trkpt>
      <trkpt lat="46.20196" lon="6.58484">
        <ele>1254.18</ele>
        <time>2019-02-08T09:44:51Z</time>
      </trkpt>
      <trkpt lat="46.20194" lon="6.58486">
        <ele>1254.66</ele>
        <time>2019-02-08T09:44:54Z</time>
      </trkpt>
      <trkpt lat="46.20184" lon="6.58497">
        <ele>1256.1</ele>
        <time>2019-02-08T09:45:07Z</time>
      </trkpt>
      <trkpt lat="46.20183" lon="6.58498">
        <ele>1256.1</ele>
        <time>2019-02-08T09:45:08Z</time>
      </trkpt>
      <trkpt lat="46.20177" lon="6.58505">
        <ele>1256.58</ele>
        <time>2019-02-08T09:45:18Z</time>
      </trkpt>
      <trkpt lat="46.20173" lon="6.58512">
        <ele>1257.54</ele>
        <time>2019-02-08T09:45:26Z</time>
      </trkpt>
      <trkpt lat="46.20163" lon="6.58516">
        <ele>1258.5</ele>
        <time>2019-02-08T09:45:37Z</time>
      </trkpt>
      <trkpt lat="46.20161" lon="6.58517">
        <ele>1258.5</ele>
        <time>2019-02-08T09:45:39Z</time>
      </trkpt>
      <trkpt lat="46.20154" lon="6.5852">
        <ele>1258.5</ele>
        <time>2019-02-08T09:45:48Z</time>
      </trkpt>
      <trkpt lat="46.20149" lon="6.58522">
        <ele>1259.94</ele>
        <time>2019-02-08T09:45:54Z</time>
      </trkpt>
      <trkpt lat="46.20143" lon="6.58528">
        <ele>1259.94</ele>
        <time>2019-02-08T09:46:05Z</time>
      </trkpt>
      <trkpt lat="46.20138" lon="6.5853">
        <ele>1261.39</ele>
        <time>2019-02-08T09:46:16Z</time>
      </trkpt>
      <trkpt lat="46.20137" lon="6.5853">
        <ele>1262.83</ele>
        <time>2019-02-08T09:46:21Z</time>
      </trkpt>
      <trkpt lat="46.20128" lon="6.58532">
        <ele>1263.31</ele>
        <time>2019-02-08T09:46:31Z</time>
      </trkpt>
      <trkpt lat="46.20119" lon="6.58535">
        <ele>1264.27</ele>
        <time>2019-02-08T09:46:42Z</time>
      </trkpt>
      <trkpt lat="46.20113" lon="6.58539">
        <ele>1265.23</ele>
        <time>2019-02-08T09:46:50Z</time>
      </trkpt>
      <trkpt lat="46.20106" lon="6.58542">
        <ele>1265.71</ele>
        <time>2019-02-08T09:47:00Z</time>
      </trkpt>
      <trkpt lat="46.20105" lon="6.58543">
        <ele>1266.19</ele>
        <time>2019-02-08T09:47:03Z</time>
      </trkpt>
      <trkpt lat="46.20097" lon="6.58545">
        <ele>1267.64</ele>
        <time>2019-02-08T09:47:14Z</time>
      </trkpt>
      <trkpt lat="46.2009" lon="6.58547">
        <ele>1268.6</ele>
        <time>2019-02-08T09:47:24Z</time>
      </trkpt>
      <trkpt lat="46.20081" lon="6.58549">
        <ele>1269.08</ele>
        <time>2019-02-08T09:47:34Z</time>
      </trkpt>
      <trkpt lat="46.20075" lon="6.58553">
        <ele>1270.04</ele>
        <time>2019-02-08T09:47:43Z</time>
      </trkpt>
      <trkpt lat="46.20068" lon="6.58554">
        <ele>1271</ele>
        <time>2019-02-08T09:47:55Z</time>
      </trkpt>
      <trkpt lat="46.2006" lon="6.58554">
        <ele>1271.96</ele>
        <time>2019-02-08T09:48:04Z</time>
      </trkpt>
      <trkpt lat="46.2005" lon="6.58556">
        <ele>1272.44</ele>
        <time>2019-02-08T09:48:15Z</time>
      </trkpt>
      <trkpt lat="46.20038" lon="6.58556">
        <ele>1273.4</ele>
        <time>2019-02-08T09:48:27Z</time>
      </trkpt>
      <trkpt lat="46.20033" lon="6.58555">
        <ele>1273.88</ele>
        <time>2019-02-08T09:48:36Z</time>
      </trkpt>
      <trkpt lat="46.2003" lon="6.58554">
        <ele>1275.33</ele>
        <time>2019-02-08T09:48:40Z</time>
      </trkpt>
      <trkpt lat="46.20024" lon="6.58547">
        <ele>1275.33</ele>
        <time>2019-02-08T09:48:52Z</time>
      </trkpt>
      <trkpt lat="46.20016" lon="6.58539">
        <ele>1277.25</ele>
        <time>2019-02-08T09:49:03Z</time>
      </trkpt>
      <trkpt lat="46.20011" lon="6.58536">
        <ele>1277.73</ele>
        <time>2019-02-08T09:49:10Z</time>
      </trkpt>
      <trkpt lat="46.20006" lon="6.58526">
        <ele>1278.21</ele>
        <time>2019-02-08T09:49:21Z</time>
      </trkpt>
      <trkpt lat="46.20004" lon="6.5851">
        <ele>1279.65</ele>
        <time>2019-02-08T09:49:32Z</time>
      </trkpt>
      <trkpt lat="46.20003" lon="6.58501">
        <ele>1280.13</ele>
        <time>2019-02-08T09:49:44Z</time>
      </trkpt>
      <trkpt lat="46.19996" lon="6.58493">
        <ele>1281.09</ele>
        <time>2019-02-08T09:49:56Z</time>
      </trkpt>
      <trkpt lat="46.19991" lon="6.58486">
        <ele>1281.09</ele>
        <time>2019-02-08T09:50:07Z</time>
      </trkpt>
      <trkpt lat="46.19987" lon="6.58486">
        <ele>1281.57</ele>
        <time>2019-02-08T09:50:11Z</time>
      </trkpt>
      <trkpt lat="46.19979" lon="6.58491">
        <ele>1282.54</ele>
        <time>2019-02-08T09:50:22Z</time>
      </trkpt>
      <trkpt lat="46.19974" lon="6.58495">
        <ele>1283.02</ele>
        <time>2019-02-08T09:50:32Z</time>
      </trkpt>
      <trkpt lat="46.19968" lon="6.58501">
        <ele>1283.98</ele>
        <time>2019-02-08T09:50:41Z</time>
      </trkpt>
      <trkpt lat="46.19961" lon="6.58508">
        <ele>1283.98</ele>
        <time>2019-02-08T09:50:53Z</time>
      </trkpt>
      <trkpt lat="46.19956" lon="6.58513">
        <ele>1284.94</ele>
        <time>2019-02-08T09:51:03Z</time>
      </trkpt>
      <trkpt lat="46.1995" lon="6.58522">
        <ele>1285.42</ele>
        <time>2019-02-08T09:51:14Z</time>
      </trkpt>
      <trkpt lat="46.19945" lon="6.58529">
        <ele>1285.9</ele>
        <time>2019-02-08T09:51:24Z</time>
      </trkpt>
      <trkpt lat="46.19941" lon="6.58538">
        <ele>1286.38</ele>
        <time>2019-02-08T09:51:34Z</time>
      </trkpt>
      <trkpt lat="46.1994" lon="6.58539">
        <ele>1286.86</ele>
        <time>2019-02-08T09:51:35Z</time>
      </trkpt>
      <trkpt lat="46.19938" lon="6.58543">
        <ele>1287.34</ele>
        <time>2019-02-08T09:51:40Z</time>
      </trkpt>
      <trkpt lat="46.19935" lon="6.58552">
        <ele>1287.34</ele>
        <time>2019-02-08T09:51:51Z</time>
      </trkpt>
      <trkpt lat="46.19928" lon="6.58563">
        <ele>1288.3</ele>
        <time>2019-02-08T09:52:02Z</time>
      </trkpt>
      <trkpt lat="46.19923" lon="6.58573">
        <ele>1288.78</ele>
        <time>2019-02-08T09:52:13Z</time>
      </trkpt>
      <trkpt lat="46.19923" lon="6.58581">
        <ele>1289.75</ele>
        <time>2019-02-08T09:52:22Z</time>
      </trkpt>
      <trkpt lat="46.19922" lon="6.58584">
        <ele>1289.75</ele>
        <time>2019-02-08T09:52:24Z</time>
      </trkpt>
      <trkpt lat="46.19919" lon="6.58592">
        <ele>1290.71</ele>
        <time>2019-02-08T09:52:32Z</time>
      </trkpt>
      <trkpt lat="46.19917" lon="6.58603">
        <ele>1291.19</ele>
        <time>2019-02-08T09:52:43Z</time>
      </trkpt>
      <trkpt lat="46.19917" lon="6.58611">
        <ele>1291.67</ele>
        <time>2019-02-08T09:52:53Z</time>
      </trkpt>
      <trkpt lat="46.19917" lon="6.58618">
        <ele>1293.11</ele>
        <time>2019-02-08T09:53:00Z</time>
      </trkpt>
      <trkpt lat="46.19915" lon="6.58621">
        <ele>1293.11</ele>
        <time>2019-02-08T09:53:03Z</time>
      </trkpt>
      <trkpt lat="46.19912" lon="6.58631">
        <ele>1294.07</ele>
        <time>2019-02-08T09:53:13Z</time>
      </trkpt>
      <trkpt lat="46.19912" lon="6.58637">
        <ele>1294.55</ele>
        <time>2019-02-08T09:53:19Z</time>
      </trkpt>
      <trkpt lat="46.19913" lon="6.5864">
        <ele>1295.03</ele>
        <time>2019-02-08T09:53:23Z</time>
      </trkpt>
      <trkpt lat="46.19908" lon="6.58651">
        <ele>1295.51</ele>
        <time>2019-02-08T09:53:34Z</time>
      </trkpt>
      <trkpt lat="46.19907" lon="6.58663">
        <ele>1297.44</ele>
        <time>2019-02-08T09:53:46Z</time>
      </trkpt>
      <trkpt lat="46.19904" lon="6.58674">
        <ele>1298.4</ele>
        <time>2019-02-08T09:53:58Z</time>
      </trkpt>
      <trkpt lat="46.19903" lon="6.58684">
        <ele>1299.84</ele>
        <time>2019-02-08T09:54:10Z</time>
      </trkpt>
      <trkpt lat="46.19899" lon="6.58694">
        <ele>1300.32</ele>
        <time>2019-02-08T09:54:21Z</time>
      </trkpt>
      <trkpt lat="46.19898" lon="6.58697">
        <ele>1300.32</ele>
        <time>2019-02-08T09:54:25Z</time>
      </trkpt>
      <trkpt lat="46.19897" lon="6.58702">
        <ele>1301.76</ele>
        <time>2019-02-08T09:54:32Z</time>
      </trkpt>
      <trkpt lat="46.19895" lon="6.58708">
        <ele>1301.76</ele>
        <time>2019-02-08T09:54:40Z</time>
      </trkpt>
      <trkpt lat="46.19891" lon="6.58711">
        <ele>1302.24</ele>
        <time>2019-02-08T09:54:50Z</time>
      </trkpt>
      <trkpt lat="46.19892" lon="6.58711">
        <ele>1302.24</ele>
        <time>2019-02-08T09:55:09Z</time>
      </trkpt>
      <trkpt lat="46.19892" lon="6.58711">
        <ele>1301.76</ele>
        <time>2019-02-08T09:57:53Z</time>
      </trkpt>
      <trkpt lat="46.19891" lon="6.5871">
        <ele>1302.24</ele>
        <time>2019-02-08T09:58:58Z</time>
      </trkpt>
      <trkpt lat="46.19891" lon="6.58712">
        <ele>1302.72</ele>
        <time>2019-02-08T10:00:09Z</time>
      </trkpt>
      <trkpt lat="46.19892" lon="6.58712">
        <ele>1302.24</ele>
        <time>2019-02-08T10:00:51Z</time>
      </trkpt>
      <trkpt lat="46.19892" lon="6.58713">
        <ele>1302.72</ele>
        <time>2019-02-08T10:01:55Z</time>
      </trkpt>
      <trkpt lat="46.19886" lon="6.58717">
        <ele>1303.2</ele>
        <time>2019-02-08T10:02:23Z</time>
      </trkpt>
      <trkpt lat="46.19883" lon="6.58723">
        <ele>1304.17</ele>
        <time>2019-02-08T10:02:33Z</time>
      </trkpt>
      <trkpt lat="46.19878" lon="6.58733">
        <ele>1305.13</ele>
        <time>2019-02-08T10:02:44Z</time>
      </trkpt>
      <trkpt lat="46.19876" lon="6.58738">
        <ele>1305.61</ele>
        <time>2019-02-08T10:02:51Z</time>
      </trkpt>
      <trkpt lat="46.19874" lon="6.58742">
        <ele>1306.09</ele>
        <time>2019-02-08T10:02:56Z</time>
      </trkpt>
      <trkpt lat="46.19871" lon="6.58749">
        <ele>1306.57</ele>
        <time>2019-02-08T10:03:02Z</time>
      </trkpt>
      <trkpt lat="46.19867" lon="6.58756">
        <ele>1308.01</ele>
        <time>2019-02-08T10:03:12Z</time>
      </trkpt>
      <trkpt lat="46.19863" lon="6.58764">
        <ele>1308.49</ele>
        <time>2019-02-08T10:03:21Z</time>
      </trkpt>
      <trkpt lat="46.1986" lon="6.58772">
        <ele>1309.93</ele>
        <time>2019-02-08T10:03:30Z</time>
      </trkpt>
      <trkpt lat="46.19855" lon="6.5878">
        <ele>1311.38</ele>
        <time>2019-02-08T10:03:42Z</time>
      </trkpt>
      <trkpt lat="46.1985" lon="6.58789">
        <ele>1311.86</ele>
        <time>2019-02-08T10:03:53Z</time>
      </trkpt>
      <trkpt lat="46.19847" lon="6.58799">
        <ele>1312.34</ele>
        <time>2019-02-08T10:04:03Z</time>
      </trkpt>
      <trkpt lat="46.19842" lon="6.58805">
        <ele>1313.78</ele>
        <time>2019-02-08T10:04:12Z</time>
      </trkpt>
      <trkpt lat="46.19837" lon="6.58814">
        <ele>1315.22</ele>
        <time>2019-02-08T10:04:22Z</time>
      </trkpt>
      <trkpt lat="46.19832" lon="6.58821">
        <ele>1316.18</ele>
        <time>2019-02-08T10:04:33Z</time>
      </trkpt>
      <trkpt lat="46.19828" lon="6.5883">
        <ele>1316.66</ele>
        <time>2019-02-08T10:04:43Z</time>
      </trkpt>
      <trkpt lat="46.19827" lon="6.58834">
        <ele>1317.62</ele>
        <time>2019-02-08T10:04:47Z</time>
      </trkpt>
      <trkpt lat="46.19822" lon="6.5884">
        <ele>1318.1</ele>
        <time>2019-02-08T10:04:57Z</time>
      </trkpt>
      <trkpt lat="46.19819" lon="6.58841">
        <ele>1318.59</ele>
        <time>2019-02-08T10:05:02Z</time>
      </trkpt>
      <trkpt lat="46.19811" lon="6.58839">
        <ele>1320.03</ele>
        <time>2019-02-08T10:05:14Z</time>
      </trkpt>
      <trkpt lat="46.19804" lon="6.58834">
        <ele>1320.51</ele>
        <time>2019-02-08T10:05:25Z</time>
      </trkpt>
      <trkpt lat="46.19798" lon="6.58827">
        <ele>1321.95</ele>
        <time>2019-02-08T10:05:37Z</time>
      </trkpt>
      <trkpt lat="46.19793" lon="6.58818">
        <ele>1322.43</ele>
        <time>2019-02-08T10:05:48Z</time>
      </trkpt>
      <trkpt lat="46.19793" lon="6.58818">
        <ele>1322.43</ele>
        <time>2019-02-08T10:05:49Z</time>
      </trkpt>
      <trkpt lat="46.1979" lon="6.58815">
        <ele>1322.91</ele>
        <time>2019-02-08T10:05:55Z</time>
      </trkpt>
      <trkpt lat="46.19783" lon="6.58808">
        <ele>1323.87</ele>
        <time>2019-02-08T10:06:06Z</time>
      </trkpt>
      <trkpt lat="46.19777" lon="6.58803">
        <ele>1324.83</ele>
        <time>2019-02-08T10:06:15Z</time>
      </trkpt>
      <trkpt lat="46.19771" lon="6.58798">
        <ele>1325.31</ele>
        <time>2019-02-08T10:06:26Z</time>
      </trkpt>
      <trkpt lat="46.19766" lon="6.58795">
        <ele>1326.28</ele>
        <time>2019-02-08T10:06:36Z</time>
      </trkpt>
      <trkpt lat="46.19759" lon="6.58791">
        <ele>1327.72</ele>
        <time>2019-02-08T10:06:47Z</time>
      </trkpt>
      <trkpt lat="46.19754" lon="6.58785">
        <ele>1329.16</ele>
        <time>2019-02-08T10:06:59Z</time>
      </trkpt>
      <trkpt lat="46.19749" lon="6.58775">
        <ele>1330.12</ele>
        <time>2019-02-08T10:07:10Z</time>
      </trkpt>
      <trkpt lat="46.19745" lon="6.58766">
        <ele>1330.6</ele>
        <time>2019-02-08T10:07:21Z</time>
      </trkpt>
      <trkpt lat="46.19742" lon="6.58758">
        <ele>1332.04</ele>
        <time>2019-02-08T10:07:31Z</time>
      </trkpt>
      <trkpt lat="46.19738" lon="6.5875">
        <ele>1332.52</ele>
        <time>2019-02-08T10:07:41Z</time>
      </trkpt>
      <trkpt lat="46.19737" lon="6.58746">
        <ele>1332.52</ele>
        <time>2019-02-08T10:07:45Z</time>
      </trkpt>
      <trkpt lat="46.19732" lon="6.58741">
        <ele>1333.49</ele>
        <time>2019-02-08T10:07:51Z</time>
      </trkpt>
      <trkpt lat="46.19727" lon="6.58734">
        <ele>1333.49</ele>
        <time>2019-02-08T10:08:01Z</time>
      </trkpt>
      <trkpt lat="46.19725" lon="6.58733">
        <ele>1333.49</ele>
        <time>2019-02-08T10:08:03Z</time>
      </trkpt>
      <trkpt lat="46.19717" lon="6.58731">
        <ele>1334.93</ele>
        <time>2019-02-08T10:08:15Z</time>
      </trkpt>
      <trkpt lat="46.19712" lon="6.58733">
        <ele>1334.45</ele>
        <time>2019-02-08T10:08:23Z</time>
      </trkpt>
      <trkpt lat="46.19706" lon="6.58741">
        <ele>1336.37</ele>
        <time>2019-02-08T10:08:35Z</time>
      </trkpt>
      <trkpt lat="46.19703" lon="6.58748">
        <ele>1336.37</ele>
        <time>2019-02-08T10:08:43Z</time>
      </trkpt>
      <trkpt lat="46.19697" lon="6.58758">
        <ele>1336.85</ele>
        <time>2019-02-08T10:08:53Z</time>
      </trkpt>
      <trkpt lat="46.19696" lon="6.58763">
        <ele>1337.33</ele>
        <time>2019-02-08T10:08:58Z</time>
      </trkpt>
      <trkpt lat="46.19696" lon="6.58768">
        <ele>1337.33</ele>
        <time>2019-02-08T10:09:02Z</time>
      </trkpt>
      <trkpt lat="46.19692" lon="6.58774">
        <ele>1337.81</ele>
        <time>2019-02-08T10:09:07Z</time>
      </trkpt>
      <trkpt lat="46.1969" lon="6.58779">
        <ele>1337.81</ele>
        <time>2019-02-08T10:09:11Z</time>
      </trkpt>
      <trkpt lat="46.19689" lon="6.58789">
        <ele>1338.77</ele>
        <time>2019-02-08T10:09:19Z</time>
      </trkpt>
      <trkpt lat="46.19689" lon="6.58796">
        <ele>1339.25</ele>
        <time>2019-02-08T10:09:26Z</time>
      </trkpt>
      <trkpt lat="46.1969" lon="6.58807">
        <ele>1339.25</ele>
        <time>2019-02-08T10:09:37Z</time>
      </trkpt>
      <trkpt lat="46.19691" lon="6.58815">
        <ele>1340.22</ele>
        <time>2019-02-08T10:09:46Z</time>
      </trkpt>
      <trkpt lat="46.19691" lon="6.58823">
        <ele>1340.22</ele>
        <time>2019-02-08T10:09:54Z</time>
      </trkpt>
      <trkpt lat="46.19691" lon="6.58826">
        <ele>1341.18</ele>
        <time>2019-02-08T10:09:57Z</time>
      </trkpt>
      <trkpt lat="46.19685" lon="6.58833">
        <ele>1341.66</ele>
        <time>2019-02-08T10:10:08Z</time>
      </trkpt>
      <trkpt lat="46.1968" lon="6.58832">
        <ele>1341.66</ele>
        <time>2019-02-08T10:10:16Z</time>
      </trkpt>
      <trkpt lat="46.19678" lon="6.58826">
        <ele>1343.58</ele>
        <time>2019-02-08T10:10:24Z</time>
      </trkpt>
      <trkpt lat="46.19676" lon="6.58819">
        <ele>1343.1</ele>
        <time>2019-02-08T10:10:33Z</time>
      </trkpt>
      <trkpt lat="46.19672" lon="6.58808">
        <ele>1344.06</ele>
        <time>2019-02-08T10:10:44Z</time>
      </trkpt>
      <trkpt lat="46.19672" lon="6.58803">
        <ele>1344.54</ele>
        <time>2019-02-08T10:10:49Z</time>
      </trkpt>
      <trkpt lat="46.19668" lon="6.58795">
        <ele>1345.02</ele>
        <time>2019-02-08T10:10:58Z</time>
      </trkpt>
      <trkpt lat="46.19662" lon="6.58788">
        <ele>1345.98</ele>
        <time>2019-02-08T10:11:09Z</time>
      </trkpt>
      <trkpt lat="46.19659" lon="6.58782">
        <ele>1345.5</ele>
        <time>2019-02-08T10:11:17Z</time>
      </trkpt>
      <trkpt lat="46.19651" lon="6.58774">
        <ele>1346.46</ele>
        <time>2019-02-08T10:11:27Z</time>
      </trkpt>
      <trkpt lat="46.19646" lon="6.58767">
        <ele>1346.94</ele>
        <time>2019-02-08T10:11:37Z</time>
      </trkpt>
      <trkpt lat="46.1964" lon="6.58758">
        <ele>1347.43</ele>
        <time>2019-02-08T10:11:48Z</time>
      </trkpt>
      <trkpt lat="46.19633" lon="6.58748">
        <ele>1348.39</ele>
        <time>2019-02-08T10:12:00Z</time>
      </trkpt>
      <trkpt lat="46.19626" lon="6.58739">
        <ele>1348.87</ele>
        <time>2019-02-08T10:12:09Z</time>
      </trkpt>
      <trkpt lat="46.19619" lon="6.5873">
        <ele>1349.83</ele>
        <time>2019-02-08T10:12:20Z</time>
      </trkpt>
      <trkpt lat="46.19619" lon="6.58727">
        <ele>1349.83</ele>
        <time>2019-02-08T10:12:23Z</time>
      </trkpt>
      <trkpt lat="46.19616" lon="6.58716">
        <ele>1350.31</ele>
        <time>2019-02-08T10:12:32Z</time>
      </trkpt>
      <trkpt lat="46.19615" lon="6.58711">
        <ele>1350.79</ele>
        <time>2019-02-08T10:12:36Z</time>
      </trkpt>
      <trkpt lat="46.19615" lon="6.5871">
        <ele>1350.31</ele>
        <time>2019-02-08T10:12:37Z</time>
      </trkpt>
      <trkpt lat="46.19618" lon="6.58702">
        <ele>1350.79</ele>
        <time>2019-02-08T10:12:45Z</time>
      </trkpt>
      <trkpt lat="46.19617" lon="6.58698">
        <ele>1351.75</ele>
        <time>2019-02-08T10:12:49Z</time>
      </trkpt>
      <trkpt lat="46.19622" lon="6.58686">
        <ele>1351.75</ele>
        <time>2019-02-08T10:13:00Z</time>
      </trkpt>
      <trkpt lat="46.19626" lon="6.58679">
        <ele>1351.75</ele>
        <time>2019-02-08T10:13:10Z</time>
      </trkpt>
      <trkpt lat="46.19621" lon="6.58676">
        <ele>1353.67</ele>
        <time>2019-02-08T10:13:20Z</time>
      </trkpt>
      <trkpt lat="46.19617" lon="6.58674">
        <ele>1353.19</ele>
        <time>2019-02-08T10:13:28Z</time>
      </trkpt>
      <trkpt lat="46.19611" lon="6.58669">
        <ele>1354.15</ele>
        <time>2019-02-08T10:13:39Z</time>
      </trkpt>
      <trkpt lat="46.19606" lon="6.58659">
        <ele>1355.12</ele>
        <time>2019-02-08T10:13:49Z</time>
      </trkpt>
      <trkpt lat="46.19605" lon="6.58646">
        <ele>1356.56</ele>
        <time>2019-02-08T10:14:01Z</time>
      </trkpt>
      <trkpt lat="46.196" lon="6.58636">
        <ele>1357.04</ele>
        <time>2019-02-08T10:14:13Z</time>
      </trkpt>
      <trkpt lat="46.19589" lon="6.58629">
        <ele>1358.96</ele>
        <time>2019-02-08T10:14:25Z</time>
      </trkpt>
      <trkpt lat="46.19582" lon="6.5862">
        <ele>1359.92</ele>
        <time>2019-02-08T10:14:38Z</time>
      </trkpt>
      <trkpt lat="46.19582" lon="6.58611">
        <ele>1360.88</ele>
        <time>2019-02-08T10:14:48Z</time>
      </trkpt>
      <trkpt lat="46.19582" lon="6.58599">
        <ele>1361.84</ele>
        <time>2019-02-08T10:15:00Z</time>
      </trkpt>
      <trkpt lat="46.19583" lon="6.58589">
        <ele>1362.81</ele>
        <time>2019-02-08T10:15:11Z</time>
      </trkpt>
      <trkpt lat="46.19588" lon="6.5858">
        <ele>1363.77</ele>
        <time>2019-02-08T10:15:22Z</time>
      </trkpt>
      <trkpt lat="46.19593" lon="6.58575">
        <ele>1364.73</ele>
        <time>2019-02-08T10:15:33Z</time>
      </trkpt>
      <trkpt lat="46.196" lon="6.58567">
        <ele>1365.69</ele>
        <time>2019-02-08T10:15:47Z</time>
      </trkpt>
      <trkpt lat="46.19609" lon="6.58561">
        <ele>1367.13</ele>
        <time>2019-02-08T10:15:59Z</time>
      </trkpt>
      <trkpt lat="46.19613" lon="6.58557">
        <ele>1368.09</ele>
        <time>2019-02-08T10:16:12Z</time>
      </trkpt>
      <trkpt lat="46.19614" lon="6.58555">
        <ele>1367.13</ele>
        <time>2019-02-08T10:17:00Z</time>
      </trkpt>
      <trkpt lat="46.19616" lon="6.58556">
        <ele>1368.09</ele>
        <time>2019-02-08T10:18:37Z</time>
      </trkpt>
      <trkpt lat="46.19616" lon="6.58553">
        <ele>1368.57</ele>
        <time>2019-02-08T10:19:12Z</time>
      </trkpt>
      <trkpt lat="46.19617" lon="6.58551">
        <ele>1369.05</ele>
        <time>2019-02-08T10:19:17Z</time>
      </trkpt>
      <trkpt lat="46.1962" lon="6.58547">
        <ele>1369.54</ele>
        <time>2019-02-08T10:19:30Z</time>
      </trkpt>
      <trkpt lat="46.19621" lon="6.5855">
        <ele>1369.05</ele>
        <time>2019-02-08T10:20:05Z</time>
      </trkpt>
      <trkpt lat="46.1962" lon="6.58553">
        <ele>1369.05</ele>
        <time>2019-02-08T10:20:23Z</time>
      </trkpt>
      <trkpt lat="46.1962" lon="6.58556">
        <ele>1369.05</ele>
        <time>2019-02-08T10:21:01Z</time>
      </trkpt>
      <trkpt lat="46.19619" lon="6.58556">
        <ele>1369.05</ele>
        <time>2019-02-08T10:21:38Z</time>
      </trkpt>
      <trkpt lat="46.19618" lon="6.58555">
        <ele>1369.05</ele>
        <time>2019-02-08T10:23:21Z</time>
      </trkpt>
      <trkpt lat="46.19619" lon="6.58554">
        <ele>1368.57</ele>
        <time>2019-02-08T10:26:29Z</time>
      </trkpt>
      <trkpt lat="46.19625" lon="6.58544">
        <ele>1370.02</ele>
        <time>2019-02-08T10:26:42Z</time>
      </trkpt>
      <trkpt lat="46.19629" lon="6.58533">
        <ele>1370.98</ele>
        <time>2019-02-08T10:26:55Z</time>
      </trkpt>
      <trkpt lat="46.19639" lon="6.58526">
        <ele>1371.46</ele>
        <time>2019-02-08T10:27:07Z</time>
      </trkpt>
      <trkpt lat="46.19652" lon="6.58529">
        <ele>1373.38</ele>
        <time>2019-02-08T10:27:21Z</time>
      </trkpt>
      <trkpt lat="46.19656" lon="6.58531">
        <ele>1374.34</ele>
        <time>2019-02-08T10:27:30Z</time>
      </trkpt>
      <trkpt lat="46.1966" lon="6.58535">
        <ele>1374.82</ele>
        <time>2019-02-08T10:27:36Z</time>
      </trkpt>
      <trkpt lat="46.19664" lon="6.5854">
        <ele>1375.3</ele>
        <time>2019-02-08T10:27:43Z</time>
      </trkpt>
      <trkpt lat="46.19665" lon="6.58544">
        <ele>1375.78</ele>
        <time>2019-02-08T10:27:48Z</time>
      </trkpt>
      <trkpt lat="46.19669" lon="6.58552">
        <ele>1376.75</ele>
        <time>2019-02-08T10:27:58Z</time>
      </trkpt>
      <trkpt lat="46.19669" lon="6.58556">
        <ele>1376.75</ele>
        <time>2019-02-08T10:28:05Z</time>
      </trkpt>
      <trkpt lat="46.19673" lon="6.58559">
        <ele>1377.71</ele>
        <time>2019-02-08T10:28:11Z</time>
      </trkpt>
      <trkpt lat="46.19683" lon="6.58562">
        <ele>1378.19</ele>
        <time>2019-02-08T10:28:23Z</time>
      </trkpt>
      <trkpt lat="46.19694" lon="6.58566">
        <ele>1379.63</ele>
        <time>2019-02-08T10:28:35Z</time>
      </trkpt>
      <trkpt lat="46.19699" lon="6.58568">
        <ele>1379.63</ele>
        <time>2019-02-08T10:28:41Z</time>
      </trkpt>
      <trkpt lat="46.19713" lon="6.58569">
        <ele>1381.07</ele>
        <time>2019-02-08T10:28:54Z</time>
      </trkpt>
      <trkpt lat="46.19717" lon="6.5857">
        <ele>1381.07</ele>
        <time>2019-02-08T10:29:02Z</time>
      </trkpt>
      <trkpt lat="46.19726" lon="6.58571">
        <ele>1382.51</ele>
        <time>2019-02-08T10:29:14Z</time>
      </trkpt>
      <trkpt lat="46.19732" lon="6.58572">
        <ele>1383.47</ele>
        <time>2019-02-08T10:29:25Z</time>
      </trkpt>
      <trkpt lat="46.19738" lon="6.58573">
        <ele>1383.96</ele>
        <time>2019-02-08T10:29:35Z</time>
      </trkpt>
      <trkpt lat="46.19747" lon="6.58572">
        <ele>1384.44</ele>
        <time>2019-02-08T10:29:46Z</time>
      </trkpt>
      <trkpt lat="46.19755" lon="6.58573">
        <ele>1385.4</ele>
        <time>2019-02-08T10:29:56Z</time>
      </trkpt>
      <trkpt lat="46.19759" lon="6.58575">
        <ele>1385.88</ele>
        <time>2019-02-08T10:30:06Z</time>
      </trkpt>
      <trkpt lat="46.19769" lon="6.58576">
        <ele>1386.84</ele>
        <time>2019-02-08T10:30:18Z</time>
      </trkpt>
      <trkpt lat="46.19776" lon="6.58576">
        <ele>1388.28</ele>
        <time>2019-02-08T10:30:30Z</time>
      </trkpt>
      <trkpt lat="46.19783" lon="6.58574">
        <ele>1388.76</ele>
        <time>2019-02-08T10:30:42Z</time>
      </trkpt>
      <trkpt lat="46.19786" lon="6.58563">
        <ele>1389.24</ele>
        <time>2019-02-08T10:30:53Z</time>
      </trkpt>
      <trkpt lat="46.19786" lon="6.5855">
        <ele>1390.2</ele>
        <time>2019-02-08T10:31:06Z</time>
      </trkpt>
      <trkpt lat="46.19785" lon="6.58542">
        <ele>1391.17</ele>
        <time>2019-02-08T10:31:17Z</time>
      </trkpt>
      <trkpt lat="46.19783" lon="6.58529">
        <ele>1391.17</ele>
        <time>2019-02-08T10:31:29Z</time>
      </trkpt>
      <trkpt lat="46.19782" lon="6.58527">
        <ele>1391.65</ele>
        <time>2019-02-08T10:31:33Z</time>
      </trkpt>
      <trkpt lat="46.1978" lon="6.58515">
        <ele>1392.13</ele>
        <time>2019-02-08T10:31:47Z</time>
      </trkpt>
      <trkpt lat="46.19778" lon="6.58502">
        <ele>1392.61</ele>
        <time>2019-02-08T10:32:00Z</time>
      </trkpt>
      <trkpt lat="46.19777" lon="6.5849">
        <ele>1393.57</ele>
        <time>2019-02-08T10:32:13Z</time>
      </trkpt>
      <trkpt lat="46.19777" lon="6.58478">
        <ele>1394.53</ele>
        <time>2019-02-08T10:32:25Z</time>
      </trkpt>
      <trkpt lat="46.19778" lon="6.58468">
        <ele>1395.01</ele>
        <time>2019-02-08T10:32:35Z</time>
      </trkpt>
      <trkpt lat="46.19778" lon="6.58458">
        <ele>1395.49</ele>
        <time>2019-02-08T10:32:45Z</time>
      </trkpt>
      <trkpt lat="46.19779" lon="6.58448">
        <ele>1396.93</ele>
        <time>2019-02-08T10:32:57Z</time>
      </trkpt>
      <trkpt lat="46.19779" lon="6.58441">
        <ele>1398.37</ele>
        <time>2019-02-08T10:33:05Z</time>
      </trkpt>
      <trkpt lat="46.1978" lon="6.5843">
        <ele>1398.86</ele>
        <time>2019-02-08T10:33:16Z</time>
      </trkpt>
      <trkpt lat="46.19781" lon="6.58422">
        <ele>1399.82</ele>
        <time>2019-02-08T10:33:28Z</time>
      </trkpt>
      <trkpt lat="46.19783" lon="6.58414">
        <ele>1400.78</ele>
        <time>2019-02-08T10:33:40Z</time>
      </trkpt>
      <trkpt lat="46.19784" lon="6.58406">
        <ele>1401.74</ele>
        <time>2019-02-08T10:33:50Z</time>
      </trkpt>
      <trkpt lat="46.19782" lon="6.58395">
        <ele>1402.7</ele>
        <time>2019-02-08T10:34:02Z</time>
      </trkpt>
      <trkpt lat="46.19783" lon="6.58391">
        <ele>1402.7</ele>
        <time>2019-02-08T10:34:05Z</time>
      </trkpt>
      <trkpt lat="46.19782" lon="6.58381">
        <ele>1404.14</ele>
        <time>2019-02-08T10:34:16Z</time>
      </trkpt>
      <trkpt lat="46.19782" lon="6.58372">
        <ele>1404.62</ele>
        <time>2019-02-08T10:34:27Z</time>
      </trkpt>
      <trkpt lat="46.1978" lon="6.58368">
        <ele>1405.1</ele>
        <time>2019-02-08T10:34:31Z</time>
      </trkpt>
      <trkpt lat="46.1978" lon="6.58356">
        <ele>1406.07</ele>
        <time>2019-02-08T10:34:42Z</time>
      </trkpt>
      <trkpt lat="46.1978" lon="6.58345">
        <ele>1407.03</ele>
        <time>2019-02-08T10:34:53Z</time>
      </trkpt>
      <trkpt lat="46.19781" lon="6.58339">
        <ele>1407.99</ele>
        <time>2019-02-08T10:35:01Z</time>
      </trkpt>
      <trkpt lat="46.19783" lon="6.58327">
        <ele>1408.95</ele>
        <time>2019-02-08T10:35:14Z</time>
      </trkpt>
      <trkpt lat="46.19784" lon="6.58325">
        <ele>1408.47</ele>
        <time>2019-02-08T10:35:16Z</time>
      </trkpt>
      <trkpt lat="46.19786" lon="6.58309">
        <ele>1408.95</ele>
        <time>2019-02-08T10:35:30Z</time>
      </trkpt>
      <trkpt lat="46.19786" lon="6.58307">
        <ele>1409.43</ele>
        <time>2019-02-08T10:35:34Z</time>
      </trkpt>
      <trkpt lat="46.19786" lon="6.58302">
        <ele>1409.43</ele>
        <time>2019-02-08T10:35:38Z</time>
      </trkpt>
      <trkpt lat="46.19787" lon="6.58291">
        <ele>1409.91</ele>
        <time>2019-02-08T10:35:49Z</time>
      </trkpt>
      <trkpt lat="46.19787" lon="6.5829">
        <ele>1410.39</ele>
        <time>2019-02-08T10:35:50Z</time>
      </trkpt>
      <trkpt lat="46.19788" lon="6.58277">
        <ele>1410.87</ele>
        <time>2019-02-08T10:36:02Z</time>
      </trkpt>
      <trkpt lat="46.19787" lon="6.58268">
        <ele>1410.39</ele>
        <time>2019-02-08T10:36:10Z</time>
      </trkpt>
      <trkpt lat="46.19785" lon="6.58252">
        <ele>1409.91</ele>
        <time>2019-02-08T10:36:24Z</time>
      </trkpt>
      <trkpt lat="46.19784" lon="6.58233">
        <ele>1408.95</ele>
        <time>2019-02-08T10:36:40Z</time>
      </trkpt>
      <trkpt lat="46.19782" lon="6.58222">
        <ele>1408.95</ele>
        <time>2019-02-08T10:36:50Z</time>
      </trkpt>
      <trkpt lat="46.19781" lon="6.58206">
        <ele>1409.91</ele>
        <time>2019-02-08T10:37:04Z</time>
      </trkpt>
      <trkpt lat="46.19778" lon="6.58195">
        <ele>1407.99</ele>
        <time>2019-02-08T10:37:17Z</time>
      </trkpt>
      <trkpt lat="46.19775" lon="6.58185">
        <ele>1407.99</ele>
        <time>2019-02-08T10:37:27Z</time>
      </trkpt>
      <trkpt lat="46.19771" lon="6.58173">
        <ele>1407.51</ele>
        <time>2019-02-08T10:37:38Z</time>
      </trkpt>
      <trkpt lat="46.19769" lon="6.58162">
        <ele>1407.03</ele>
        <time>2019-02-08T10:37:48Z</time>
      </trkpt>
      <trkpt lat="46.19766" lon="6.58144">
        <ele>1405.1</ele>
        <time>2019-02-08T10:38:02Z</time>
      </trkpt>
      <trkpt lat="46.19765" lon="6.58129">
        <ele>1404.62</ele>
        <time>2019-02-08T10:38:14Z</time>
      </trkpt>
      <trkpt lat="46.19768" lon="6.58121">
        <ele>1404.62</ele>
        <time>2019-02-08T10:38:24Z</time>
      </trkpt>
      <trkpt lat="46.19769" lon="6.58105">
        <ele>1403.18</ele>
        <time>2019-02-08T10:38:37Z</time>
      </trkpt>
      <trkpt lat="46.19772" lon="6.58089">
        <ele>1403.18</ele>
        <time>2019-02-08T10:38:49Z</time>
      </trkpt>
      <trkpt lat="46.19776" lon="6.58074">
        <ele>1402.7</ele>
        <time>2019-02-08T10:39:00Z</time>
      </trkpt>
      <trkpt lat="46.19778" lon="6.58067">
        <ele>1402.22</ele>
        <time>2019-02-08T10:39:05Z</time>
      </trkpt>
      <trkpt lat="46.19783" lon="6.58056">
        <ele>1402.22</ele>
        <time>2019-02-08T10:39:17Z</time>
      </trkpt>
      <trkpt lat="46.19788" lon="6.58046">
        <ele>1402.22</ele>
        <time>2019-02-08T10:39:28Z</time>
      </trkpt>
      <trkpt lat="46.19798" lon="6.58036">
        <ele>1400.78</ele>
        <time>2019-02-08T10:39:40Z</time>
      </trkpt>
      <trkpt lat="46.19811" lon="6.58025">
        <ele>1400.3</ele>
        <time>2019-02-08T10:39:55Z</time>
      </trkpt>
      <trkpt lat="46.1982" lon="6.58017">
        <ele>1400.3</ele>
        <time>2019-02-08T10:40:07Z</time>
      </trkpt>
      <trkpt lat="46.19821" lon="6.58016">
        <ele>1399.82</ele>
        <time>2019-02-08T10:40:08Z</time>
      </trkpt>
      <trkpt lat="46.1983" lon="6.58006">
        <ele>1399.34</ele>
        <time>2019-02-08T10:40:21Z</time>
      </trkpt>
      <trkpt lat="46.19839" lon="6.57997">
        <ele>1397.89</ele>
        <time>2019-02-08T10:40:35Z</time>
      </trkpt>
      <trkpt lat="46.19846" lon="6.57987">
        <ele>1396.93</ele>
        <time>2019-02-08T10:40:48Z</time>
      </trkpt>
      <trkpt lat="46.19855" lon="6.57978">
        <ele>1395.97</ele>
        <time>2019-02-08T10:40:59Z</time>
      </trkpt>
      <trkpt lat="46.19857" lon="6.57974">
        <ele>1395.97</ele>
        <time>2019-02-08T10:41:03Z</time>
      </trkpt>
      <trkpt lat="46.19869" lon="6.57969">
        <ele>1394.53</ele>
        <time>2019-02-08T10:41:16Z</time>
      </trkpt>
      <trkpt lat="46.19876" lon="6.57964">
        <ele>1394.05</ele>
        <time>2019-02-08T10:41:27Z</time>
      </trkpt>
      <trkpt lat="46.19884" lon="6.57959">
        <ele>1394.53</ele>
        <time>2019-02-08T10:41:37Z</time>
      </trkpt>
      <trkpt lat="46.19896" lon="6.57956">
        <ele>1393.57</ele>
        <time>2019-02-08T10:41:49Z</time>
      </trkpt>
      <trkpt lat="46.19905" lon="6.57953">
        <ele>1393.57</ele>
        <time>2019-02-08T10:42:00Z</time>
      </trkpt>
      <trkpt lat="46.19914" lon="6.57949">
        <ele>1394.05</ele>
        <time>2019-02-08T10:42:11Z</time>
      </trkpt>
      <trkpt lat="46.19918" lon="6.57948">
        <ele>1394.53</ele>
        <time>2019-02-08T10:42:15Z</time>
      </trkpt>
      <trkpt lat="46.19928" lon="6.57946">
        <ele>1395.97</ele>
        <time>2019-02-08T10:42:27Z</time>
      </trkpt>
      <trkpt lat="46.19938" lon="6.57943">
        <ele>1395.97</ele>
        <time>2019-02-08T10:42:40Z</time>
      </trkpt>
      <trkpt lat="46.19945" lon="6.57939">
        <ele>1397.89</ele>
        <time>2019-02-08T10:42:52Z</time>
      </trkpt>
      <trkpt lat="46.19954" lon="6.57934">
        <ele>1398.86</ele>
        <time>2019-02-08T10:43:05Z</time>
      </trkpt>
      <trkpt lat="46.19968" lon="6.57925">
        <ele>1399.82</ele>
        <time>2019-02-08T10:43:19Z</time>
      </trkpt>
      <trkpt lat="46.19972" lon="6.57918">
        <ele>1401.74</ele>
        <time>2019-02-08T10:43:30Z</time>
      </trkpt>
      <trkpt lat="46.19972" lon="6.57906">
        <ele>1401.74</ele>
        <time>2019-02-08T10:43:43Z</time>
      </trkpt>
      <trkpt lat="46.19968" lon="6.57903">
        <ele>1402.7</ele>
        <time>2019-02-08T10:43:54Z</time>
      </trkpt>
      <trkpt lat="46.19968" lon="6.57904">
        <ele>1402.22</ele>
        <time>2019-02-08T10:45:18Z</time>
      </trkpt>
      <trkpt lat="46.19969" lon="6.57904">
        <ele>1402.22</ele>
        <time>2019-02-08T10:47:32Z</time>
      </trkpt>
      <trkpt lat="46.19964" lon="6.57909">
        <ele>1402.7</ele>
        <time>2019-02-08T10:48:36Z</time>
      </trkpt>
      <trkpt lat="46.19955" lon="6.57912">
        <ele>1404.62</ele>
        <time>2019-02-08T10:48:52Z</time>
      </trkpt>
      <trkpt lat="46.19949" lon="6.57915">
        <ele>1406.07</ele>
        <time>2019-02-08T10:49:03Z</time>
      </trkpt>
      <trkpt lat="46.19949" lon="6.57915">
        <ele>1406.07</ele>
        <time>2019-02-08T10:49:04Z</time>
      </trkpt>
      <trkpt lat="46.1994" lon="6.57915">
        <ele>1407.51</ele>
        <time>2019-02-08T10:49:16Z</time>
      </trkpt>
      <trkpt lat="46.19933" lon="6.57911">
        <ele>1409.43</ele>
        <time>2019-02-08T10:49:29Z</time>
      </trkpt>
      <trkpt lat="46.19926" lon="6.57905">
        <ele>1411.35</ele>
        <time>2019-02-08T10:49:42Z</time>
      </trkpt>
      <trkpt lat="46.19925" lon="6.57904">
        <ele>1411.83</ele>
        <time>2019-02-08T10:49:48Z</time>
      </trkpt>
      <trkpt lat="46.19922" lon="6.57901">
        <ele>1413.76</ele>
        <time>2019-02-08T10:49:59Z</time>
      </trkpt>
      <trkpt lat="46.19912" lon="6.57896">
        <ele>1414.72</ele>
        <time>2019-02-08T10:50:12Z</time>
      </trkpt>
      <trkpt lat="46.19908" lon="6.57893">
        <ele>1416.64</ele>
        <time>2019-02-08T10:50:27Z</time>
      </trkpt>
      <trkpt lat="46.19906" lon="6.57893">
        <ele>1418.56</ele>
        <time>2019-02-08T10:50:39Z</time>
      </trkpt>
      <trkpt lat="46.199" lon="6.57892">
        <ele>1420</ele>
        <time>2019-02-08T10:50:52Z</time>
      </trkpt>
      <trkpt lat="46.19892" lon="6.57891">
        <ele>1421.93</ele>
        <time>2019-02-08T10:51:05Z</time>
      </trkpt>
      <trkpt lat="46.19886" lon="6.57888">
        <ele>1423.85</ele>
        <time>2019-02-08T10:51:17Z</time>
      </trkpt>
      <trkpt lat="46.19879" lon="6.57886">
        <ele>1425.77</ele>
        <time>2019-02-08T10:51:33Z</time>
      </trkpt>
      <trkpt lat="46.19874" lon="6.57888">
        <ele>1428.18</ele>
        <time>2019-02-08T10:51:48Z</time>
      </trkpt>
      <trkpt lat="46.19869" lon="6.57888">
        <ele>1430.58</ele>
        <time>2019-02-08T10:52:01Z</time>
      </trkpt>
      <trkpt lat="46.19862" lon="6.57891">
        <ele>1432.5</ele>
        <time>2019-02-08T10:52:17Z</time>
      </trkpt>
      <trkpt lat="46.19853" lon="6.57898">
        <ele>1434.42</ele>
        <time>2019-02-08T10:52:29Z</time>
      </trkpt>
      <trkpt lat="46.19847" lon="6.57897">
        <ele>1435.87</ele>
        <time>2019-02-08T10:52:42Z</time>
      </trkpt>
      <trkpt lat="46.19846" lon="6.57895">
        <ele>1436.35</ele>
        <time>2019-02-08T10:52:57Z</time>
      </trkpt>
      <trkpt lat="46.19842" lon="6.57893">
        <ele>1436.35</ele>
        <time>2019-02-08T10:54:09Z</time>
      </trkpt>
      <trkpt lat="46.19832" lon="6.57892">
        <ele>1437.31</ele>
        <time>2019-02-08T10:54:22Z</time>
      </trkpt>
      <trkpt lat="46.19821" lon="6.57885">
        <ele>1438.27</ele>
        <time>2019-02-08T10:54:34Z</time>
      </trkpt>
      <trkpt lat="46.19815" lon="6.57881">
        <ele>1440.19</ele>
        <time>2019-02-08T10:54:46Z</time>
      </trkpt>
      <trkpt lat="46.19811" lon="6.57879">
        <ele>1441.15</ele>
        <time>2019-02-08T10:54:59Z</time>
      </trkpt>
      <trkpt lat="46.19806" lon="6.57879">
        <ele>1443.08</ele>
        <time>2019-02-08T10:55:12Z</time>
      </trkpt>
      <trkpt lat="46.19801" lon="6.57874">
        <ele>1444.52</ele>
        <time>2019-02-08T10:55:23Z</time>
      </trkpt>
      <trkpt lat="46.19796" lon="6.57869">
        <ele>1446.44</ele>
        <time>2019-02-08T10:55:36Z</time>
      </trkpt>
      <trkpt lat="46.19787" lon="6.57861">
        <ele>1447.4</ele>
        <time>2019-02-08T10:55:49Z</time>
      </trkpt>
      <trkpt lat="46.19783" lon="6.57852">
        <ele>1450.29</ele>
        <time>2019-02-08T10:56:04Z</time>
      </trkpt>
      <trkpt lat="46.19781" lon="6.57846">
        <ele>1451.73</ele>
        <time>2019-02-08T10:56:16Z</time>
      </trkpt>
      <trkpt lat="46.19775" lon="6.5784">
        <ele>1452.69</ele>
        <time>2019-02-08T10:56:27Z</time>
      </trkpt>
      <trkpt lat="46.19772" lon="6.57836">
        <ele>1454.13</ele>
        <time>2019-02-08T10:56:38Z</time>
      </trkpt>
      <trkpt lat="46.19768" lon="6.57827">
        <ele>1456.05</ele>
        <time>2019-02-08T10:56:49Z</time>
      </trkpt>
      <trkpt lat="46.19766" lon="6.57822">
        <ele>1457.02</ele>
        <time>2019-02-08T10:57:00Z</time>
      </trkpt>
      <trkpt lat="46.19767" lon="6.57817">
        <ele>1458.94</ele>
        <time>2019-02-08T10:57:12Z</time>
      </trkpt>
      <trkpt lat="46.19768" lon="6.57813">
        <ele>1460.86</ele>
        <time>2019-02-08T10:57:22Z</time>
      </trkpt>
      <trkpt lat="46.19771" lon="6.57809">
        <ele>1461.82</ele>
        <time>2019-02-08T10:57:34Z</time>
      </trkpt>
      <trkpt lat="46.1978" lon="6.57804">
        <ele>1463.74</ele>
        <time>2019-02-08T10:57:47Z</time>
      </trkpt>
      <trkpt lat="46.1978" lon="6.57804">
        <ele>1465.67</ele>
        <time>2019-02-08T10:58:00Z</time>
      </trkpt>
      <trkpt lat="46.19786" lon="6.57801">
        <ele>1467.11</ele>
        <time>2019-02-08T10:58:14Z</time>
      </trkpt>
      <trkpt lat="46.19798" lon="6.5779">
        <ele>1468.55</ele>
        <time>2019-02-08T10:58:28Z</time>
      </trkpt>
      <trkpt lat="46.19802" lon="6.57783">
        <ele>1470.95</ele>
        <time>2019-02-08T10:58:42Z</time>
      </trkpt>
      <trkpt lat="46.19803" lon="6.57779">
        <ele>1472.4</ele>
        <time>2019-02-08T10:58:55Z</time>
      </trkpt>
      <trkpt lat="46.19803" lon="6.57779">
        <ele>1472.88</ele>
        <time>2019-02-08T10:59:07Z</time>
      </trkpt>
      <trkpt lat="46.19805" lon="6.57781">
        <ele>1472.4</ele>
        <time>2019-02-08T11:01:08Z</time>
      </trkpt>
      <trkpt lat="46.19806" lon="6.57782">
        <ele>1472.88</ele>
        <time>2019-02-08T11:02:11Z</time>
      </trkpt>
      <trkpt lat="46.19808" lon="6.57783">
        <ele>1472.88</ele>
        <time>2019-02-08T11:04:39Z</time>
      </trkpt>
      <trkpt lat="46.19807" lon="6.57783">
        <ele>1472.88</ele>
        <time>2019-02-08T11:05:49Z</time>
      </trkpt>
      <trkpt lat="46.19802" lon="6.57779">
        <ele>1474.32</ele>
        <time>2019-02-08T11:06:00Z</time>
      </trkpt>
      <trkpt lat="46.19796" lon="6.57779">
        <ele>1475.76</ele>
        <time>2019-02-08T11:06:12Z</time>
      </trkpt>
      <trkpt lat="46.19796" lon="6.57769">
        <ele>1477.2</ele>
        <time>2019-02-08T11:06:24Z</time>
      </trkpt>
      <trkpt lat="46.19796" lon="6.5776">
        <ele>1479.13</ele>
        <time>2019-02-08T11:06:36Z</time>
      </trkpt>
      <trkpt lat="46.19796" lon="6.57755">
        <ele>1480.57</ele>
        <time>2019-02-08T11:06:48Z</time>
      </trkpt>
      <trkpt lat="46.19793" lon="6.57747">
        <ele>1482.97</ele>
        <time>2019-02-08T11:07:02Z</time>
      </trkpt>
      <trkpt lat="46.19787" lon="6.57744">
        <ele>1484.89</ele>
        <time>2019-02-08T11:07:14Z</time>
      </trkpt>
      <trkpt lat="46.19781" lon="6.57738">
        <ele>1486.34</ele>
        <time>2019-02-08T11:07:28Z</time>
      </trkpt>
      <trkpt lat="46.19774" lon="6.57734">
        <ele>1486.82</ele>
        <time>2019-02-08T11:07:39Z</time>
      </trkpt>
      <trkpt lat="46.19768" lon="6.57732">
        <ele>1488.26</ele>
        <time>2019-02-08T11:07:50Z</time>
      </trkpt>
      <trkpt lat="46.19762" lon="6.57733">
        <ele>1490.18</ele>
        <time>2019-02-08T11:08:03Z</time>
      </trkpt>
      <trkpt lat="46.19757" lon="6.57733">
        <ele>1490.66</ele>
        <time>2019-02-08T11:08:15Z</time>
      </trkpt>
      <trkpt lat="46.19756" lon="6.57733">
        <ele>1491.62</ele>
        <time>2019-02-08T11:08:16Z</time>
      </trkpt>
      <trkpt lat="46.19749" lon="6.57733">
        <ele>1492.1</ele>
        <time>2019-02-08T11:08:27Z</time>
      </trkpt>
      <trkpt lat="46.19739" lon="6.57735">
        <ele>1493.55</ele>
        <time>2019-02-08T11:08:41Z</time>
      </trkpt>
      <trkpt lat="46.1973" lon="6.5774">
        <ele>1494.99</ele>
        <time>2019-02-08T11:08:54Z</time>
      </trkpt>
      <trkpt lat="46.19726" lon="6.57743">
        <ele>1497.39</ele>
        <time>2019-02-08T11:09:07Z</time>
      </trkpt>
      <trkpt lat="46.19721" lon="6.57747">
        <ele>1498.35</ele>
        <time>2019-02-08T11:09:17Z</time>
      </trkpt>
      <trkpt lat="46.19709" lon="6.57762">
        <ele>1499.31</ele>
        <time>2019-02-08T11:09:29Z</time>
      </trkpt>
      <trkpt lat="46.19709" lon="6.57762">
        <ele>1499.79</ele>
        <time>2019-02-08T11:09:30Z</time>
      </trkpt>
      <trkpt lat="46.19705" lon="6.57769">
        <ele>1500.27</ele>
        <time>2019-02-08T11:09:36Z</time>
      </trkpt>
      <trkpt lat="46.19699" lon="6.57776">
        <ele>1501.24</ele>
        <time>2019-02-08T11:09:47Z</time>
      </trkpt>
      <trkpt lat="46.19696" lon="6.57781">
        <ele>1501.72</ele>
        <time>2019-02-08T11:09:53Z</time>
      </trkpt>
      <trkpt lat="46.19692" lon="6.57786">
        <ele>1502.68</ele>
        <time>2019-02-08T11:10:04Z</time>
      </trkpt>
      <trkpt lat="46.19682" lon="6.57791">
        <ele>1502.2</ele>
        <time>2019-02-08T11:10:15Z</time>
      </trkpt>
      <trkpt lat="46.19672" lon="6.57789">
        <ele>1504.6</ele>
        <time>2019-02-08T11:10:29Z</time>
      </trkpt>
      <trkpt lat="46.19657" lon="6.5779">
        <ele>1505.56</ele>
        <time>2019-02-08T11:10:42Z</time>
      </trkpt>
      <trkpt lat="46.19652" lon="6.57792">
        <ele>1506.04</ele>
        <time>2019-02-08T11:10:52Z</time>
      </trkpt>
      <trkpt lat="46.19647" lon="6.57794">
        <ele>1507.48</ele>
        <time>2019-02-08T11:11:06Z</time>
      </trkpt>
      <trkpt lat="46.19642" lon="6.57798">
        <ele>1509.41</ele>
        <time>2019-02-08T11:11:18Z</time>
      </trkpt>
      <trkpt lat="46.19639" lon="6.57801">
        <ele>1510.85</ele>
        <time>2019-02-08T11:11:26Z</time>
      </trkpt>
      <trkpt lat="46.19634" lon="6.57807">
        <ele>1511.33</ele>
        <time>2019-02-08T11:11:37Z</time>
      </trkpt>
      <trkpt lat="46.19627" lon="6.57813">
        <ele>1511.81</ele>
        <time>2019-02-08T11:11:48Z</time>
      </trkpt>
      <trkpt lat="46.19625" lon="6.57814">
        <ele>1512.77</ele>
        <time>2019-02-08T11:11:51Z</time>
      </trkpt>
      <trkpt lat="46.19617" lon="6.57821">
        <ele>1514.21</ele>
        <time>2019-02-08T11:12:04Z</time>
      </trkpt>
      <trkpt lat="46.19611" lon="6.57825">
        <ele>1515.18</ele>
        <time>2019-02-08T11:12:15Z</time>
      </trkpt>
      <trkpt lat="46.19605" lon="6.5783">
        <ele>1515.66</ele>
        <time>2019-02-08T11:12:25Z</time>
      </trkpt>
      <trkpt lat="46.19598" lon="6.57836">
        <ele>1517.1</ele>
        <time>2019-02-08T11:12:37Z</time>
      </trkpt>
      <trkpt lat="46.19592" lon="6.57841">
        <ele>1518.54</ele>
        <time>2019-02-08T11:12:48Z</time>
      </trkpt>
      <trkpt lat="46.19586" lon="6.57845">
        <ele>1518.54</ele>
        <time>2019-02-08T11:12:59Z</time>
      </trkpt>
      <trkpt lat="46.19579" lon="6.57843">
        <ele>1518.54</ele>
        <time>2019-02-08T11:13:09Z</time>
      </trkpt>
      <trkpt lat="46.1957" lon="6.57838">
        <ele>1519.02</ele>
        <time>2019-02-08T11:13:21Z</time>
      </trkpt>
      <trkpt lat="46.19567" lon="6.57837">
        <ele>1518.54</ele>
        <time>2019-02-08T11:13:24Z</time>
      </trkpt>
      <trkpt lat="46.19562" lon="6.57837">
        <ele>1519.02</ele>
        <time>2019-02-08T11:13:31Z</time>
      </trkpt>
      <trkpt lat="46.19554" lon="6.5784">
        <ele>1519.5</ele>
        <time>2019-02-08T11:13:45Z</time>
      </trkpt>
      <trkpt lat="46.19549" lon="6.57843">
        <ele>1519.98</ele>
        <time>2019-02-08T11:13:59Z</time>
      </trkpt>
      <trkpt lat="46.19548" lon="6.57844">
        <ele>1519.98</ele>
        <time>2019-02-08T11:14:11Z</time>
      </trkpt>
      <trkpt lat="46.19548" lon="6.57844">
        <ele>1519.02</ele>
        <time>2019-02-08T11:14:29Z</time>
      </trkpt>
      <trkpt lat="46.19547" lon="6.57844">
        <ele>1518.54</ele>
        <time>2019-02-08T11:14:44Z</time>
      </trkpt>
      <trkpt lat="46.19547" lon="6.57842">
        <ele>1519.02</ele>
        <time>2019-02-08T11:15:10Z</time>
      </trkpt>
      <trkpt lat="46.19547" lon="6.57842">
        <ele>1518.06</ele>
        <time>2019-02-08T11:15:42Z</time>
      </trkpt>
      <trkpt lat="46.19548" lon="6.57842">
        <ele>1518.06</ele>
        <time>2019-02-08T11:15:59Z</time>
      </trkpt>
      <trkpt lat="46.19549" lon="6.57843">
        <ele>1517.58</ele>
        <time>2019-02-08T11:16:15Z</time>
      </trkpt>
      <trkpt lat="46.1955" lon="6.57843">
        <ele>1517.58</ele>
        <time>2019-02-08T11:16:55Z</time>
      </trkpt>
      <trkpt lat="46.19549" lon="6.57843">
        <ele>1518.06</ele>
        <time>2019-02-08T11:20:03Z</time>
      </trkpt>
      <trkpt lat="46.19549" lon="6.57843">
        <ele>1517.58</ele>
        <time>2019-02-08T11:21:10Z</time>
      </trkpt>
      <trkpt lat="46.1955" lon="6.57843">
        <ele>1519.02</ele>
        <time>2019-02-08T11:26:15Z</time>
      </trkpt>
      <trkpt lat="46.1955" lon="6.57842">
        <ele>1519.02</ele>
        <time>2019-02-08T11:36:33Z</time>
      </trkpt>
      <trkpt lat="46.1955" lon="6.57844">
        <ele>1519.5</ele>
        <time>2019-02-08T11:48:43Z</time>
      </trkpt>
      <trkpt lat="46.1955" lon="6.57844">
        <ele>1521.42</ele>
        <time>2019-02-08T11:51:59Z</time>
      </trkpt>
      <trkpt lat="46.1955" lon="6.57844">
        <ele>1520.94</ele>
        <time>2019-02-08T11:56:26Z</time>
      </trkpt>
      <trkpt lat="46.19551" lon="6.57844">
        <ele>1522.87</ele>
        <time>2019-02-08T12:09:04Z</time>
      </trkpt>
      <trkpt lat="46.19551" lon="6.57844">
        <ele>1522.87</ele>
        <time>2019-02-08T12:11:08Z</time>
      </trkpt>
      <trkpt lat="46.19549" lon="6.57844">
        <ele>1523.35</ele>
        <time>2019-02-08T12:13:25Z</time>
      </trkpt>
      <trkpt lat="46.19551" lon="6.57843">
        <ele>1523.35</ele>
        <time>2019-02-08T12:13:59Z</time>
      </trkpt>
      <trkpt lat="46.19551" lon="6.5784">
        <ele>1523.83</ele>
        <time>2019-02-08T12:14:13Z</time>
      </trkpt>
      <trkpt lat="46.19548" lon="6.57838">
        <ele>1523.35</ele>
        <time>2019-02-08T12:14:24Z</time>
      </trkpt>
      <trkpt lat="46.19548" lon="6.57837">
        <ele>1523.35</ele>
        <time>2019-02-08T12:14:41Z</time>
      </trkpt>
      <trkpt lat="46.1955" lon="6.57838">
        <ele>1523.83</ele>
        <time>2019-02-08T12:15:33Z</time>
      </trkpt>
      <trkpt lat="46.19558" lon="6.57837">
        <ele>1522.87</ele>
        <time>2019-02-08T12:15:45Z</time>
      </trkpt>
      <trkpt lat="46.19563" lon="6.57838">
        <ele>1523.35</ele>
        <time>2019-02-08T12:15:50Z</time>
      </trkpt>
      <trkpt lat="46.19564" lon="6.57846">
        <ele>1522.39</ele>
        <time>2019-02-08T12:16:01Z</time>
      </trkpt>
      <trkpt lat="46.19562" lon="6.5785">
        <ele>1523.83</ele>
        <time>2019-02-08T12:16:14Z</time>
      </trkpt>
      <trkpt lat="46.19563" lon="6.57849">
        <ele>1522.87</ele>
        <time>2019-02-08T12:17:26Z</time>
      </trkpt>
      <trkpt lat="46.19559" lon="6.57841">
        <ele>1522.87</ele>
        <time>2019-02-08T12:17:40Z</time>
      </trkpt>
      <trkpt lat="46.19555" lon="6.5784">
        <ele>1522.39</ele>
        <time>2019-02-08T12:17:57Z</time>
      </trkpt>
      <trkpt lat="46.19554" lon="6.5784">
        <ele>1521.9</ele>
        <time>2019-02-08T12:18:49Z</time>
      </trkpt>
      <trkpt lat="46.19552" lon="6.5784">
        <ele>1521.9</ele>
        <time>2019-02-08T12:22:59Z</time>
      </trkpt>
      <trkpt lat="46.19547" lon="6.57842">
        <ele>1521.9</ele>
        <time>2019-02-08T12:23:06Z</time>
      </trkpt>
      <trkpt lat="46.19543" lon="6.57841">
        <ele>1521.42</ele>
        <time>2019-02-08T12:23:10Z</time>
      </trkpt>
      <trkpt lat="46.19534" lon="6.57836">
        <ele>1522.39</ele>
        <time>2019-02-08T12:23:23Z</time>
      </trkpt>
      <trkpt lat="46.19527" lon="6.57831">
        <ele>1522.39</ele>
        <time>2019-02-08T12:23:34Z</time>
      </trkpt>
      <trkpt lat="46.19522" lon="6.57829">
        <ele>1523.83</ele>
        <time>2019-02-08T12:23:45Z</time>
      </trkpt>
      <trkpt lat="46.19519" lon="6.57828">
        <ele>1524.79</ele>
        <time>2019-02-08T12:23:57Z</time>
      </trkpt>
      <trkpt lat="46.1951" lon="6.57828">
        <ele>1525.27</ele>
        <time>2019-02-08T12:24:09Z</time>
      </trkpt>
      <trkpt lat="46.19505" lon="6.57825">
        <ele>1525.27</ele>
        <time>2019-02-08T12:24:21Z</time>
      </trkpt>
      <trkpt lat="46.19504" lon="6.57824">
        <ele>1524.79</ele>
        <time>2019-02-08T12:25:08Z</time>
      </trkpt>
      <trkpt lat="46.19501" lon="6.57825">
        <ele>1525.27</ele>
        <time>2019-02-08T12:25:12Z</time>
      </trkpt>
      <trkpt lat="46.19491" lon="6.57824">
        <ele>1526.23</ele>
        <time>2019-02-08T12:25:24Z</time>
      </trkpt>
      <trkpt lat="46.19485" lon="6.57821">
        <ele>1527.19</ele>
        <time>2019-02-08T12:25:32Z</time>
      </trkpt>
      <trkpt lat="46.1948" lon="6.57819">
        <ele>1528.15</ele>
        <time>2019-02-08T12:25:39Z</time>
      </trkpt>
      <trkpt lat="46.19477" lon="6.57818">
        <ele>1528.15</ele>
        <time>2019-02-08T12:25:43Z</time>
      </trkpt>
      <trkpt lat="46.19471" lon="6.57814">
        <ele>1528.63</ele>
        <time>2019-02-08T12:25:56Z</time>
      </trkpt>
      <trkpt lat="46.19467" lon="6.57814">
        <ele>1529.11</ele>
        <time>2019-02-08T12:26:07Z</time>
      </trkpt>
      <trkpt lat="46.19461" lon="6.57811">
        <ele>1529.59</ele>
        <time>2019-02-08T12:26:21Z</time>
      </trkpt>
      <trkpt lat="46.19455" lon="6.57812">
        <ele>1531.04</ele>
        <time>2019-02-08T12:26:32Z</time>
      </trkpt>
      <trkpt lat="46.19448" lon="6.57813">
        <ele>1531.52</ele>
        <time>2019-02-08T12:26:43Z</time>
      </trkpt>
      <trkpt lat="46.19441" lon="6.57815">
        <ele>1532.48</ele>
        <time>2019-02-08T12:26:56Z</time>
      </trkpt>
      <trkpt lat="46.19434" lon="6.57815">
        <ele>1532.96</ele>
        <time>2019-02-08T12:27:07Z</time>
      </trkpt>
      <trkpt lat="46.19427" lon="6.57815">
        <ele>1533.92</ele>
        <time>2019-02-08T12:27:20Z</time>
      </trkpt>
      <trkpt lat="46.19422" lon="6.57814">
        <ele>1534.88</ele>
        <time>2019-02-08T12:27:32Z</time>
      </trkpt>
      <trkpt lat="46.19422" lon="6.57813">
        <ele>1534.88</ele>
        <time>2019-02-08T12:28:24Z</time>
      </trkpt>
      <trkpt lat="46.19415" lon="6.57814">
        <ele>1535.36</ele>
        <time>2019-02-08T12:29:12Z</time>
      </trkpt>
      <trkpt lat="46.19411" lon="6.57813">
        <ele>1535.36</ele>
        <time>2019-02-08T12:29:17Z</time>
      </trkpt>
      <trkpt lat="46.19404" lon="6.57811">
        <ele>1535.84</ele>
        <time>2019-02-08T12:29:27Z</time>
      </trkpt>
      <trkpt lat="46.19397" lon="6.57804">
        <ele>1536.8</ele>
        <time>2019-02-08T12:29:38Z</time>
      </trkpt>
      <trkpt lat="46.19389" lon="6.57796">
        <ele>1537.77</ele>
        <time>2019-02-08T12:29:50Z</time>
      </trkpt>
      <trkpt lat="46.19388" lon="6.57795">
        <ele>1536.8</ele>
        <time>2019-02-08T12:29:52Z</time>
      </trkpt>
      <trkpt lat="46.19383" lon="6.57791">
        <ele>1537.29</ele>
        <time>2019-02-08T12:29:58Z</time>
      </trkpt>
      <trkpt lat="46.19372" lon="6.57788">
        <ele>1537.77</ele>
        <time>2019-02-08T12:30:10Z</time>
      </trkpt>
      <trkpt lat="46.19371" lon="6.57787">
        <ele>1537.77</ele>
        <time>2019-02-08T12:30:11Z</time>
      </trkpt>
      <trkpt lat="46.19369" lon="6.57786">
        <ele>1537.77</ele>
        <time>2019-02-08T12:30:13Z</time>
      </trkpt>
      <trkpt lat="46.1936" lon="6.5778">
        <ele>1538.25</ele>
        <time>2019-02-08T12:30:26Z</time>
      </trkpt>
      <trkpt lat="46.1935" lon="6.57781">
        <ele>1539.21</ele>
        <time>2019-02-08T12:30:38Z</time>
      </trkpt>
      <trkpt lat="46.19344" lon="6.57782">
        <ele>1539.21</ele>
        <time>2019-02-08T12:30:45Z</time>
      </trkpt>
      <trkpt lat="46.19342" lon="6.57783">
        <ele>1539.21</ele>
        <time>2019-02-08T12:30:48Z</time>
      </trkpt>
      <trkpt lat="46.19331" lon="6.57782">
        <ele>1539.69</ele>
        <time>2019-02-08T12:31:00Z</time>
      </trkpt>
      <trkpt lat="46.19324" lon="6.57781">
        <ele>1539.69</ele>
        <time>2019-02-08T12:31:09Z</time>
      </trkpt>
      <trkpt lat="46.19319" lon="6.57782">
        <ele>1539.69</ele>
        <time>2019-02-08T12:31:14Z</time>
      </trkpt>
      <trkpt lat="46.19316" lon="6.57782">
        <ele>1540.17</ele>
        <time>2019-02-08T12:31:18Z</time>
      </trkpt>
      <trkpt lat="46.19314" lon="6.57783">
        <ele>1539.21</ele>
        <time>2019-02-08T12:31:20Z</time>
      </trkpt>
      <trkpt lat="46.1931" lon="6.57785">
        <ele>1540.65</ele>
        <time>2019-02-08T12:31:31Z</time>
      </trkpt>
      <trkpt lat="46.19308" lon="6.57786">
        <ele>1541.13</ele>
        <time>2019-02-08T12:31:35Z</time>
      </trkpt>
      <trkpt lat="46.19303" lon="6.57789">
        <ele>1540.65</ele>
        <time>2019-02-08T12:31:43Z</time>
      </trkpt>
      <trkpt lat="46.19295" lon="6.57791">
        <ele>1542.57</ele>
        <time>2019-02-08T12:31:57Z</time>
      </trkpt>
      <trkpt lat="46.19288" lon="6.57793">
        <ele>1543.53</ele>
        <time>2019-02-08T12:32:10Z</time>
      </trkpt>
      <trkpt lat="46.19285" lon="6.57792">
        <ele>1544.98</ele>
        <time>2019-02-08T12:32:21Z</time>
      </trkpt>
      <trkpt lat="46.19284" lon="6.57792">
        <ele>1544.98</ele>
        <time>2019-02-08T12:32:33Z</time>
      </trkpt>
      <trkpt lat="46.19282" lon="6.57792">
        <ele>1545.46</ele>
        <time>2019-02-08T12:32:36Z</time>
      </trkpt>
      <trkpt lat="46.19272" lon="6.57794">
        <ele>1546.9</ele>
        <time>2019-02-08T12:32:48Z</time>
      </trkpt>
      <trkpt lat="46.19263" lon="6.57796">
        <ele>1547.86</ele>
        <time>2019-02-08T12:32:57Z</time>
      </trkpt>
      <trkpt lat="46.19257" lon="6.57795">
        <ele>1548.34</ele>
        <time>2019-02-08T12:33:07Z</time>
      </trkpt>
      <trkpt lat="46.19252" lon="6.57796">
        <ele>1548.82</ele>
        <time>2019-02-08T12:33:19Z</time>
      </trkpt>
      <trkpt lat="46.19249" lon="6.57797">
        <ele>1550.74</ele>
        <time>2019-02-08T12:33:32Z</time>
      </trkpt>
      <trkpt lat="46.19247" lon="6.57798">
        <ele>1551.22</ele>
        <time>2019-02-08T12:33:41Z</time>
      </trkpt>
      <trkpt lat="46.19244" lon="6.57796">
        <ele>1550.74</ele>
        <time>2019-02-08T12:34:27Z</time>
      </trkpt>
      <trkpt lat="46.19244" lon="6.57797">
        <ele>1550.74</ele>
        <time>2019-02-08T12:35:25Z</time>
      </trkpt>
      <trkpt lat="46.19243" lon="6.57796">
        <ele>1550.74</ele>
        <time>2019-02-08T12:36:24Z</time>
      </trkpt>
      <trkpt lat="46.19243" lon="6.57796">
        <ele>1550.74</ele>
        <time>2019-02-08T12:36:45Z</time>
      </trkpt>
      <trkpt lat="46.19243" lon="6.57796">
        <ele>1551.22</ele>
        <time>2019-02-08T12:37:23Z</time>
      </trkpt>
      <trkpt lat="46.19243" lon="6.57795">
        <ele>1551.22</ele>
        <time>2019-02-08T12:38:08Z</time>
      </trkpt>
      <trkpt lat="46.19243" lon="6.57794">
        <ele>1551.22</ele>
        <time>2019-02-08T12:38:33Z</time>
      </trkpt>
      <trkpt lat="46.19243" lon="6.57793">
        <ele>1550.74</ele>
        <time>2019-02-08T12:40:40Z</time>
      </trkpt>
      <trkpt lat="46.19242" lon="6.57793">
        <ele>1550.74</ele>
        <time>2019-02-08T12:41:02Z</time>
      </trkpt>
      <trkpt lat="46.19242" lon="6.57793">
        <ele>1550.74</ele>
        <time>2019-02-08T12:41:51Z</time>
      </trkpt>
      <trkpt lat="46.19246" lon="6.57793">
        <ele>1550.74</ele>
        <time>2019-02-08T12:41:56Z</time>
      </trkpt>
      <trkpt lat="46.19253" lon="6.57792">
        <ele>1549.3</ele>
        <time>2019-02-08T12:42:07Z</time>
      </trkpt>
      <trkpt lat="46.19259" lon="6.57793">
        <ele>1547.38</ele>
        <time>2019-02-08T12:42:16Z</time>
      </trkpt>
      <trkpt lat="46.19267" lon="6.57797">
        <ele>1544.98</ele>
        <time>2019-02-08T12:42:28Z</time>
      </trkpt>
      <trkpt lat="46.19273" lon="6.57801">
        <ele>1543.53</ele>
        <time>2019-02-08T12:42:40Z</time>
      </trkpt>
      <trkpt lat="46.19278" lon="6.57805">
        <ele>1542.09</ele>
        <time>2019-02-08T12:42:47Z</time>
      </trkpt>
      <trkpt lat="46.19288" lon="6.57813">
        <ele>1540.65</ele>
        <time>2019-02-08T12:42:58Z</time>
      </trkpt>
      <trkpt lat="46.19288" lon="6.57814">
        <ele>1540.65</ele>
        <time>2019-02-08T12:42:59Z</time>
      </trkpt>
      <trkpt lat="46.19296" lon="6.57821">
        <ele>1538.73</ele>
        <time>2019-02-08T12:43:09Z</time>
      </trkpt>
      <trkpt lat="46.19301" lon="6.57827">
        <ele>1535.36</ele>
        <time>2019-02-08T12:43:20Z</time>
      </trkpt>
      <trkpt lat="46.19303" lon="6.57827">
        <ele>1534.88</ele>
        <time>2019-02-08T12:43:24Z</time>
      </trkpt>
      <trkpt lat="46.19311" lon="6.57832">
        <ele>1532.96</ele>
        <time>2019-02-08T12:43:35Z</time>
      </trkpt>
      <trkpt lat="46.19318" lon="6.57834">
        <ele>1532.48</ele>
        <time>2019-02-08T12:43:41Z</time>
      </trkpt>
      <trkpt lat="46.19322" lon="6.57835">
        <ele>1532.48</ele>
        <time>2019-02-08T12:43:54Z</time>
      </trkpt>
      <trkpt lat="46.19328" lon="6.57837">
        <ele>1531.52</ele>
        <time>2019-02-08T12:44:28Z</time>
      </trkpt>
      <trkpt lat="46.19336" lon="6.57839">
        <ele>1531.52</ele>
        <time>2019-02-08T12:44:54Z</time>
      </trkpt>
      <trkpt lat="46.19346" lon="6.57842">
        <ele>1530.08</ele>
        <time>2019-02-08T12:45:04Z</time>
      </trkpt>
      <trkpt lat="46.19352" lon="6.57845">
        <ele>1530.08</ele>
        <time>2019-02-08T12:45:10Z</time>
      </trkpt>
      <trkpt lat="46.19354" lon="6.57846">
        <ele>1530.08</ele>
        <time>2019-02-08T12:45:12Z</time>
      </trkpt>
      <trkpt lat="46.19362" lon="6.57849">
        <ele>1530.08</ele>
        <time>2019-02-08T12:45:23Z</time>
      </trkpt>
      <trkpt lat="46.1937" lon="6.57849">
        <ele>1529.59</ele>
        <time>2019-02-08T12:45:34Z</time>
      </trkpt>
      <trkpt lat="46.19379" lon="6.57854">
        <ele>1528.63</ele>
        <time>2019-02-08T12:45:45Z</time>
      </trkpt>
      <trkpt lat="46.19383" lon="6.57855">
        <ele>1529.59</ele>
        <time>2019-02-08T12:45:52Z</time>
      </trkpt>
      <trkpt lat="46.19388" lon="6.57857">
        <ele>1530.08</ele>
        <time>2019-02-08T12:45:58Z</time>
      </trkpt>
      <trkpt lat="46.19397" lon="6.57861">
        <ele>1530.56</ele>
        <time>2019-02-08T12:46:10Z</time>
      </trkpt>
      <trkpt lat="46.19407" lon="6.57864">
        <ele>1531.52</ele>
        <time>2019-02-08T12:46:21Z</time>
      </trkpt>
      <trkpt lat="46.19414" lon="6.57867">
        <ele>1532.96</ele>
        <time>2019-02-08T12:46:31Z</time>
      </trkpt>
      <trkpt lat="46.19421" lon="6.57869">
        <ele>1533.92</ele>
        <time>2019-02-08T12:46:43Z</time>
      </trkpt>
      <trkpt lat="46.19424" lon="6.57871">
        <ele>1533.92</ele>
        <time>2019-02-08T12:46:47Z</time>
      </trkpt>
      <trkpt lat="46.19428" lon="6.57872">
        <ele>1534.88</ele>
        <time>2019-02-08T12:46:52Z</time>
      </trkpt>
      <trkpt lat="46.19433" lon="6.57876">
        <ele>1535.36</ele>
        <time>2019-02-08T12:47:03Z</time>
      </trkpt>
      <trkpt lat="46.19438" lon="6.57882">
        <ele>1535.36</ele>
        <time>2019-02-08T12:47:14Z</time>
      </trkpt>
      <trkpt lat="46.19439" lon="6.57882">
        <ele>1535.84</ele>
        <time>2019-02-08T12:47:15Z</time>
      </trkpt>
      <trkpt lat="46.19444" lon="6.57886">
        <ele>1534.88</ele>
        <time>2019-02-08T12:47:25Z</time>
      </trkpt>
      <trkpt lat="46.19451" lon="6.57892">
        <ele>1535.36</ele>
        <time>2019-02-08T12:47:36Z</time>
      </trkpt>
      <trkpt lat="46.19454" lon="6.5789">
        <ele>1535.36</ele>
        <time>2019-02-08T12:47:47Z</time>
      </trkpt>
      <trkpt lat="46.19464" lon="6.57878">
        <ele>1533.92</ele>
        <time>2019-02-08T12:48:01Z</time>
      </trkpt>
      <trkpt lat="46.19465" lon="6.57877">
        <ele>1533.44</ele>
        <time>2019-02-08T12:48:11Z</time>
      </trkpt>
      <trkpt lat="46.19471" lon="6.57872">
        <ele>1532.96</ele>
        <time>2019-02-08T12:48:26Z</time>
      </trkpt>
      <trkpt lat="46.19481" lon="6.5787">
        <ele>1531.04</ele>
        <time>2019-02-08T12:48:37Z</time>
      </trkpt>
      <trkpt lat="46.19489" lon="6.57869">
        <ele>1530.56</ele>
        <time>2019-02-08T12:48:47Z</time>
      </trkpt>
      <trkpt lat="46.19502" lon="6.57868">
        <ele>1528.63</ele>
        <time>2019-02-08T12:49:00Z</time>
      </trkpt>
      <trkpt lat="46.19502" lon="6.57868">
        <ele>1528.63</ele>
        <time>2019-02-08T12:49:01Z</time>
      </trkpt>
      <trkpt lat="46.19513" lon="6.57868">
        <ele>1527.67</ele>
        <time>2019-02-08T12:49:13Z</time>
      </trkpt>
      <trkpt lat="46.19521" lon="6.57869">
        <ele>1526.71</ele>
        <time>2019-02-08T12:49:21Z</time>
      </trkpt>
      <trkpt lat="46.19531" lon="6.57868">
        <ele>1524.79</ele>
        <time>2019-02-08T12:49:30Z</time>
      </trkpt>
      <trkpt lat="46.19533" lon="6.57868">
        <ele>1524.79</ele>
        <time>2019-02-08T12:49:32Z</time>
      </trkpt>
      <trkpt lat="46.19535" lon="6.57867">
        <ele>1525.27</ele>
        <time>2019-02-08T12:49:34Z</time>
      </trkpt>
      <trkpt lat="46.19549" lon="6.57864">
        <ele>1523.83</ele>
        <time>2019-02-08T12:49:47Z</time>
      </trkpt>
      <trkpt lat="46.1956" lon="6.57863">
        <ele>1522.39</ele>
        <time>2019-02-08T12:49:59Z</time>
      </trkpt>
      <trkpt lat="46.19561" lon="6.57862">
        <ele>1521.42</ele>
        <time>2019-02-08T12:50:12Z</time>
      </trkpt>
      <trkpt lat="46.19561" lon="6.57864">
        <ele>1521.9</ele>
        <time>2019-02-08T12:50:26Z</time>
      </trkpt>
      <trkpt lat="46.19565" lon="6.57862">
        <ele>1521.42</ele>
        <time>2019-02-08T12:50:31Z</time>
      </trkpt>
      <trkpt lat="46.19566" lon="6.5786">
        <ele>1521.42</ele>
        <time>2019-02-08T12:50:33Z</time>
      </trkpt>
      <trkpt lat="46.19571" lon="6.57857">
        <ele>1521.42</ele>
        <time>2019-02-08T12:50:38Z</time>
      </trkpt>
      <trkpt lat="46.19577" lon="6.5785">
        <ele>1520.94</ele>
        <time>2019-02-08T12:50:47Z</time>
      </trkpt>
      <trkpt lat="46.19578" lon="6.57849">
        <ele>1520.46</ele>
        <time>2019-02-08T12:50:49Z</time>
      </trkpt>
      <trkpt lat="46.19583" lon="6.57845">
        <ele>1519.5</ele>
        <time>2019-02-08T12:51:00Z</time>
      </trkpt>
      <trkpt lat="46.19583" lon="6.57845">
        <ele>1519.98</ele>
        <time>2019-02-08T12:51:41Z</time>
      </trkpt>
      <trkpt lat="46.19583" lon="6.57845">
        <ele>1519.98</ele>
        <time>2019-02-08T12:51:56Z</time>
      </trkpt>
      <trkpt lat="46.19589" lon="6.57842">
        <ele>1519.98</ele>
        <time>2019-02-08T12:54:54Z</time>
      </trkpt>
      <trkpt lat="46.19591" lon="6.57839">
        <ele>1519.5</ele>
        <time>2019-02-08T12:54:57Z</time>
      </trkpt>
      <trkpt lat="46.196" lon="6.57833">
        <ele>1518.54</ele>
        <time>2019-02-08T12:55:08Z</time>
      </trkpt>
      <trkpt lat="46.19605" lon="6.57829">
        <ele>1517.58</ele>
        <time>2019-02-08T12:55:14Z</time>
      </trkpt>
      <trkpt lat="46.19611" lon="6.57824">
        <ele>1517.1</ele>
        <time>2019-02-08T12:55:21Z</time>
      </trkpt>
      <trkpt lat="46.19613" lon="6.57821">
        <ele>1516.14</ele>
        <time>2019-02-08T12:55:24Z</time>
      </trkpt>
      <trkpt lat="46.19616" lon="6.57819">
        <ele>1516.62</ele>
        <time>2019-02-08T12:55:27Z</time>
      </trkpt>
      <trkpt lat="46.19618" lon="6.57817">
        <ele>1515.66</ele>
        <time>2019-02-08T12:55:30Z</time>
      </trkpt>
      <trkpt lat="46.19621" lon="6.57815">
        <ele>1515.18</ele>
        <time>2019-02-08T12:55:33Z</time>
      </trkpt>
      <trkpt lat="46.19623" lon="6.57814">
        <ele>1515.18</ele>
        <time>2019-02-08T12:55:35Z</time>
      </trkpt>
      <trkpt lat="46.19628" lon="6.57812">
        <ele>1514.21</ele>
        <time>2019-02-08T12:55:40Z</time>
      </trkpt>
      <trkpt lat="46.1963" lon="6.57811">
        <ele>1513.73</ele>
        <time>2019-02-08T12:55:42Z</time>
      </trkpt>
      <trkpt lat="46.19639" lon="6.57804">
        <ele>1512.29</ele>
        <time>2019-02-08T12:55:54Z</time>
      </trkpt>
      <trkpt lat="46.19648" lon="6.57795">
        <ele>1509.41</ele>
        <time>2019-02-08T12:56:07Z</time>
      </trkpt>
      <trkpt lat="46.19656" lon="6.57791">
        <ele>1507.48</ele>
        <time>2019-02-08T12:56:15Z</time>
      </trkpt>
      <trkpt lat="46.19661" lon="6.57789">
        <ele>1506.52</ele>
        <time>2019-02-08T12:56:19Z</time>
      </trkpt>
      <trkpt lat="46.19674" lon="6.5779">
        <ele>1505.08</ele>
        <time>2019-02-08T12:56:33Z</time>
      </trkpt>
      <trkpt lat="46.19686" lon="6.57785">
        <ele>1503.64</ele>
        <time>2019-02-08T12:56:44Z</time>
      </trkpt>
      <trkpt lat="46.19694" lon="6.57779">
        <ele>1502.68</ele>
        <time>2019-02-08T12:56:54Z</time>
      </trkpt>
      <trkpt lat="46.19702" lon="6.5777">
        <ele>1501.24</ele>
        <time>2019-02-08T12:57:06Z</time>
      </trkpt>
      <trkpt lat="46.19704" lon="6.57767">
        <ele>1501.72</ele>
        <time>2019-02-08T12:57:09Z</time>
      </trkpt>
      <trkpt lat="46.19714" lon="6.57756">
        <ele>1500.27</ele>
        <time>2019-02-08T12:57:22Z</time>
      </trkpt>
      <trkpt lat="46.19719" lon="6.57749">
        <ele>1499.31</ele>
        <time>2019-02-08T12:57:33Z</time>
      </trkpt>
      <trkpt lat="46.19719" lon="6.57747">
        <ele>1498.83</ele>
        <time>2019-02-08T12:57:35Z</time>
      </trkpt>
      <trkpt lat="46.19727" lon="6.5774">
        <ele>1495.95</ele>
        <time>2019-02-08T12:57:47Z</time>
      </trkpt>
      <trkpt lat="46.19741" lon="6.57736">
        <ele>1494.03</ele>
        <time>2019-02-08T12:58:00Z</time>
      </trkpt>
      <trkpt lat="46.19756" lon="6.5773">
        <ele>1492.1</ele>
        <time>2019-02-08T12:58:13Z</time>
      </trkpt>
      <trkpt lat="46.19765" lon="6.57727">
        <ele>1490.66</ele>
        <time>2019-02-08T12:58:26Z</time>
      </trkpt>
      <trkpt lat="46.19779" lon="6.57727">
        <ele>1488.74</ele>
        <time>2019-02-08T12:58:38Z</time>
      </trkpt>
      <trkpt lat="46.19785" lon="6.57732">
        <ele>1487.3</ele>
        <time>2019-02-08T12:58:50Z</time>
      </trkpt>
      <trkpt lat="46.19796" lon="6.57737">
        <ele>1485.37</ele>
        <time>2019-02-08T12:59:03Z</time>
      </trkpt>
      <trkpt lat="46.19798" lon="6.57739">
        <ele>1483.93</ele>
        <time>2019-02-08T12:59:06Z</time>
      </trkpt>
      <trkpt lat="46.19803" lon="6.5775">
        <ele>1482.97</ele>
        <time>2019-02-08T12:59:18Z</time>
      </trkpt>
      <trkpt lat="46.19805" lon="6.57758">
        <ele>1480.57</ele>
        <time>2019-02-08T12:59:30Z</time>
      </trkpt>
      <trkpt lat="46.19806" lon="6.57765">
        <ele>1478.65</ele>
        <time>2019-02-08T12:59:42Z</time>
      </trkpt>
      <trkpt lat="46.19809" lon="6.5777">
        <ele>1475.28</ele>
        <time>2019-02-08T12:59:50Z</time>
      </trkpt>
      <trkpt lat="46.19809" lon="6.57778">
        <ele>1473.36</ele>
        <time>2019-02-08T13:00:04Z</time>
      </trkpt>
      <trkpt lat="46.19809" lon="6.57781">
        <ele>1470.95</ele>
        <time>2019-02-08T13:00:28Z</time>
      </trkpt>
      <trkpt lat="46.19805" lon="6.57788">
        <ele>1469.99</ele>
        <time>2019-02-08T13:00:36Z</time>
      </trkpt>
      <trkpt lat="46.19799" lon="6.57796">
        <ele>1467.59</ele>
        <time>2019-02-08T13:00:48Z</time>
      </trkpt>
      <trkpt lat="46.19787" lon="6.57803">
        <ele>1465.19</ele>
        <time>2019-02-08T13:01:01Z</time>
      </trkpt>
      <trkpt lat="46.19782" lon="6.57803">
        <ele>1463.26</ele>
        <time>2019-02-08T13:01:09Z</time>
      </trkpt>
      <trkpt lat="46.19777" lon="6.57812">
        <ele>1461.34</ele>
        <time>2019-02-08T13:01:20Z</time>
      </trkpt>
      <trkpt lat="46.19773" lon="6.57823">
        <ele>1458.94</ele>
        <time>2019-02-08T13:01:30Z</time>
      </trkpt>
      <trkpt lat="46.19777" lon="6.57833">
        <ele>1457.02</ele>
        <time>2019-02-08T13:01:41Z</time>
      </trkpt>
      <trkpt lat="46.19786" lon="6.57844">
        <ele>1453.65</ele>
        <time>2019-02-08T13:01:53Z</time>
      </trkpt>
      <trkpt lat="46.19788" lon="6.57846">
        <ele>1453.65</ele>
        <time>2019-02-08T13:01:55Z</time>
      </trkpt>
      <trkpt lat="46.19793" lon="6.57852">
        <ele>1452.69</ele>
        <time>2019-02-08T13:02:02Z</time>
      </trkpt>
      <trkpt lat="46.198" lon="6.57865">
        <ele>1449.32</ele>
        <time>2019-02-08T13:02:14Z</time>
      </trkpt>
      <trkpt lat="46.19812" lon="6.57877">
        <ele>1445.96</ele>
        <time>2019-02-08T13:02:29Z</time>
      </trkpt>
      <trkpt lat="46.19819" lon="6.57879">
        <ele>1443.56</ele>
        <time>2019-02-08T13:02:38Z</time>
      </trkpt>
      <trkpt lat="46.19825" lon="6.57882">
        <ele>1441.63</ele>
        <time>2019-02-08T13:02:44Z</time>
      </trkpt>
      <trkpt lat="46.19828" lon="6.57891">
        <ele>1440.19</ele>
        <time>2019-02-08T13:02:56Z</time>
      </trkpt>
      <trkpt lat="46.19837" lon="6.57895">
        <ele>1438.75</ele>
        <time>2019-02-08T13:03:09Z</time>
      </trkpt>
      <trkpt lat="46.19846" lon="6.57896">
        <ele>1437.31</ele>
        <time>2019-02-08T13:03:22Z</time>
      </trkpt>
      <trkpt lat="46.19855" lon="6.57894">
        <ele>1434.42</ele>
        <time>2019-02-08T13:03:34Z</time>
      </trkpt>
      <trkpt lat="46.19864" lon="6.57889">
        <ele>1431.06</ele>
        <time>2019-02-08T13:03:46Z</time>
      </trkpt>
      <trkpt lat="46.19869" lon="6.57888">
        <ele>1428.18</ele>
        <time>2019-02-08T13:03:57Z</time>
      </trkpt>
      <trkpt lat="46.19874" lon="6.5789">
        <ele>1425.29</ele>
        <time>2019-02-08T13:04:09Z</time>
      </trkpt>
      <trkpt lat="46.19883" lon="6.5789">
        <ele>1421.93</ele>
        <time>2019-02-08T13:04:20Z</time>
      </trkpt>
      <trkpt lat="46.1989" lon="6.57894">
        <ele>1419.04</ele>
        <time>2019-02-08T13:04:30Z</time>
      </trkpt>
      <trkpt lat="46.19899" lon="6.57895">
        <ele>1416.64</ele>
        <time>2019-02-08T13:04:41Z</time>
      </trkpt>
      <trkpt lat="46.19906" lon="6.57898">
        <ele>1414.24</ele>
        <time>2019-02-08T13:04:51Z</time>
      </trkpt>
      <trkpt lat="46.19916" lon="6.57902">
        <ele>1412.31</ele>
        <time>2019-02-08T13:04:58Z</time>
      </trkpt>
      <trkpt lat="46.19925" lon="6.57907">
        <ele>1410.39</ele>
        <time>2019-02-08T13:05:05Z</time>
      </trkpt>
      <trkpt lat="46.1993" lon="6.57909">
        <ele>1409.43</ele>
        <time>2019-02-08T13:05:10Z</time>
      </trkpt>
      <trkpt lat="46.19946" lon="6.57909">
        <ele>1407.03</ele>
        <time>2019-02-08T13:05:24Z</time>
      </trkpt>
      <trkpt lat="46.19947" lon="6.57909">
        <ele>1407.03</ele>
        <time>2019-02-08T13:05:25Z</time>
      </trkpt>
      <trkpt lat="46.1995" lon="6.57908">
        <ele>1406.07</ele>
        <time>2019-02-08T13:05:28Z</time>
      </trkpt>
      <trkpt lat="46.19954" lon="6.57907">
        <ele>1406.55</ele>
        <time>2019-02-08T13:05:31Z</time>
      </trkpt>
      <trkpt lat="46.19966" lon="6.57907">
        <ele>1403.66</ele>
        <time>2019-02-08T13:05:42Z</time>
      </trkpt>
      <trkpt lat="46.1997" lon="6.57905">
        <ele>1404.14</ele>
        <time>2019-02-08T13:05:56Z</time>
      </trkpt>
      <trkpt lat="46.1997" lon="6.57905">
        <ele>1404.14</ele>
        <time>2019-02-08T13:06:15Z</time>
      </trkpt>
      <trkpt lat="46.19972" lon="6.57908">
        <ele>1404.14</ele>
        <time>2019-02-08T13:07:12Z</time>
      </trkpt>
      <trkpt lat="46.19971" lon="6.57908">
        <ele>1404.14</ele>
        <time>2019-02-08T13:08:08Z</time>
      </trkpt>
      <trkpt lat="46.1997" lon="6.579">
        <ele>1404.14</ele>
        <time>2019-02-08T13:09:03Z</time>
      </trkpt>
      <trkpt lat="46.19968" lon="6.57891">
        <ele>1402.22</ele>
        <time>2019-02-08T13:09:13Z</time>
      </trkpt>
      <trkpt lat="46.19969" lon="6.5788">
        <ele>1398.86</ele>
        <time>2019-02-08T13:09:24Z</time>
      </trkpt>
      <trkpt lat="46.19975" lon="6.5787">
        <ele>1396.93</ele>
        <time>2019-02-08T13:09:35Z</time>
      </trkpt>
      <trkpt lat="46.19982" lon="6.57864">
        <ele>1394.53</ele>
        <time>2019-02-08T13:09:46Z</time>
      </trkpt>
      <trkpt lat="46.1999" lon="6.57858">
        <ele>1391.65</ele>
        <time>2019-02-08T13:10:00Z</time>
      </trkpt>
      <trkpt lat="46.19991" lon="6.57857">
        <ele>1391.65</ele>
        <time>2019-02-08T13:10:02Z</time>
      </trkpt>
      <trkpt lat="46.19993" lon="6.57852">
        <ele>1388.76</ele>
        <time>2019-02-08T13:10:13Z</time>
      </trkpt>
      <trkpt lat="46.19992" lon="6.57851">
        <ele>1388.28</ele>
        <time>2019-02-08T13:10:24Z</time>
      </trkpt>
      <trkpt lat="46.19991" lon="6.57849">
        <ele>1387.8</ele>
        <time>2019-02-08T13:10:51Z</time>
      </trkpt>
      <trkpt lat="46.19992" lon="6.57841">
        <ele>1384.92</ele>
        <time>2019-02-08T13:11:05Z</time>
      </trkpt>
      <trkpt lat="46.19991" lon="6.5783">
        <ele>1382.51</ele>
        <time>2019-02-08T13:11:18Z</time>
      </trkpt>
      <trkpt lat="46.19991" lon="6.57824">
        <ele>1380.11</ele>
        <time>2019-02-08T13:11:28Z</time>
      </trkpt>
      <trkpt lat="46.19986" lon="6.57809">
        <ele>1376.75</ele>
        <time>2019-02-08T13:11:41Z</time>
      </trkpt>
      <trkpt lat="46.19984" lon="6.578">
        <ele>1373.38</ele>
        <time>2019-02-08T13:11:52Z</time>
      </trkpt>
      <trkpt lat="46.19989" lon="6.57791">
        <ele>1370.5</ele>
        <time>2019-02-08T13:12:05Z</time>
      </trkpt>
      <trkpt lat="46.19994" lon="6.57798">
        <ele>1367.13</ele>
        <time>2019-02-08T13:12:18Z</time>
      </trkpt>
      <trkpt lat="46.2" lon="6.57802">
        <ele>1364.73</ele>
        <time>2019-02-08T13:12:31Z</time>
      </trkpt>
      <trkpt lat="46.2" lon="6.57801">
        <ele>1364.25</ele>
        <time>2019-02-08T13:13:02Z</time>
      </trkpt>
      <trkpt lat="46.20002" lon="6.578">
        <ele>1363.29</ele>
        <time>2019-02-08T13:14:38Z</time>
      </trkpt>
      <trkpt lat="46.20008" lon="6.57792">
        <ele>1360.88</ele>
        <time>2019-02-08T13:14:53Z</time>
      </trkpt>
      <trkpt lat="46.20009" lon="6.57791">
        <ele>1360.4</ele>
        <time>2019-02-08T13:14:54Z</time>
      </trkpt>
      <trkpt lat="46.20012" lon="6.57789">
        <ele>1359.92</ele>
        <time>2019-02-08T13:14:58Z</time>
      </trkpt>
      <trkpt lat="46.20025" lon="6.57797">
        <ele>1357.04</ele>
        <time>2019-02-08T13:15:12Z</time>
      </trkpt>
      <trkpt lat="46.20031" lon="6.57803">
        <ele>1355.12</ele>
        <time>2019-02-08T13:15:25Z</time>
      </trkpt>
      <trkpt lat="46.20034" lon="6.578">
        <ele>1352.23</ele>
        <time>2019-02-08T13:15:38Z</time>
      </trkpt>
      <trkpt lat="46.20035" lon="6.57798">
        <ele>1349.83</ele>
        <time>2019-02-08T13:15:49Z</time>
      </trkpt>
      <trkpt lat="46.20045" lon="6.57787">
        <ele>1347.43</ele>
        <time>2019-02-08T13:15:59Z</time>
      </trkpt>
      <trkpt lat="46.20055" lon="6.57779">
        <ele>1345.5</ele>
        <time>2019-02-08T13:16:09Z</time>
      </trkpt>
      <trkpt lat="46.20058" lon="6.57776">
        <ele>1345.02</ele>
        <time>2019-02-08T13:16:13Z</time>
      </trkpt>
      <trkpt lat="46.20062" lon="6.57772">
        <ele>1344.06</ele>
        <time>2019-02-08T13:16:27Z</time>
      </trkpt>
      <trkpt lat="46.20067" lon="6.57768">
        <ele>1341.66</ele>
        <time>2019-02-08T13:16:38Z</time>
      </trkpt>
      <trkpt lat="46.20075" lon="6.57766">
        <ele>1340.22</ele>
        <time>2019-02-08T13:16:51Z</time>
      </trkpt>
      <trkpt lat="46.20085" lon="6.57762">
        <ele>1338.77</ele>
        <time>2019-02-08T13:17:01Z</time>
      </trkpt>
      <trkpt lat="46.20096" lon="6.57756">
        <ele>1337.33</ele>
        <time>2019-02-08T13:17:14Z</time>
      </trkpt>
      <trkpt lat="46.20102" lon="6.57754">
        <ele>1336.37</ele>
        <time>2019-02-08T13:17:23Z</time>
      </trkpt>
      <trkpt lat="46.20109" lon="6.5775">
        <ele>1334.45</ele>
        <time>2019-02-08T13:17:35Z</time>
      </trkpt>
      <trkpt lat="46.20121" lon="6.57745">
        <ele>1332.52</ele>
        <time>2019-02-08T13:17:47Z</time>
      </trkpt>
      <trkpt lat="46.2013" lon="6.57739">
        <ele>1330.6</ele>
        <time>2019-02-08T13:18:01Z</time>
      </trkpt>
      <trkpt lat="46.20141" lon="6.57734">
        <ele>1328.2</ele>
        <time>2019-02-08T13:18:15Z</time>
      </trkpt>
      <trkpt lat="46.20148" lon="6.57729">
        <ele>1326.76</ele>
        <time>2019-02-08T13:18:26Z</time>
      </trkpt>
      <trkpt lat="46.20148" lon="6.57729">
        <ele>1326.28</ele>
        <time>2019-02-08T13:18:50Z</time>
      </trkpt>
      <trkpt lat="46.20148" lon="6.5773">
        <ele>1324.83</ele>
        <time>2019-02-08T13:19:29Z</time>
      </trkpt>
      <trkpt lat="46.20155" lon="6.57728">
        <ele>1323.39</ele>
        <time>2019-02-08T13:19:44Z</time>
      </trkpt>
      <trkpt lat="46.20159" lon="6.57727">
        <ele>1320.99</ele>
        <time>2019-02-08T13:19:54Z</time>
      </trkpt>
      <trkpt lat="46.20172" lon="6.5772">
        <ele>1318.59</ele>
        <time>2019-02-08T13:20:07Z</time>
      </trkpt>
      <trkpt lat="46.20183" lon="6.57714">
        <ele>1316.66</ele>
        <time>2019-02-08T13:20:19Z</time>
      </trkpt>
      <trkpt lat="46.20193" lon="6.57715">
        <ele>1313.3</ele>
        <time>2019-02-08T13:20:33Z</time>
      </trkpt>
      <trkpt lat="46.202" lon="6.57714">
        <ele>1311.38</ele>
        <time>2019-02-08T13:20:44Z</time>
      </trkpt>
      <trkpt lat="46.20213" lon="6.57708">
        <ele>1309.45</ele>
        <time>2019-02-08T13:20:57Z</time>
      </trkpt>
      <trkpt lat="46.20219" lon="6.57708">
        <ele>1306.57</ele>
        <time>2019-02-08T13:21:11Z</time>
      </trkpt>
      <trkpt lat="46.20229" lon="6.5771">
        <ele>1304.17</ele>
        <time>2019-02-08T13:21:22Z</time>
      </trkpt>
      <trkpt lat="46.20241" lon="6.57711">
        <ele>1302.72</ele>
        <time>2019-02-08T13:21:32Z</time>
      </trkpt>
      <trkpt lat="46.20253" lon="6.57708">
        <ele>1299.84</ele>
        <time>2019-02-08T13:21:44Z</time>
      </trkpt>
      <trkpt lat="46.20257" lon="6.57706">
        <ele>1297.92</ele>
        <time>2019-02-08T13:21:54Z</time>
      </trkpt>
      <trkpt lat="46.20272" lon="6.57711">
        <ele>1295.51</ele>
        <time>2019-02-08T13:22:07Z</time>
      </trkpt>
      <trkpt lat="46.20277" lon="6.57715">
        <ele>1293.11</ele>
        <time>2019-02-08T13:22:19Z</time>
      </trkpt>
      <trkpt lat="46.20293" lon="6.57723">
        <ele>1290.23</ele>
        <time>2019-02-08T13:22:31Z</time>
      </trkpt>
      <trkpt lat="46.20307" lon="6.57727">
        <ele>1287.34</ele>
        <time>2019-02-08T13:22:47Z</time>
      </trkpt>
      <trkpt lat="46.20314" lon="6.57728">
        <ele>1284.46</ele>
        <time>2019-02-08T13:23:00Z</time>
      </trkpt>
      <trkpt lat="46.20318" lon="6.57729">
        <ele>1281.57</ele>
        <time>2019-02-08T13:23:12Z</time>
      </trkpt>
      <trkpt lat="46.2033" lon="6.57733">
        <ele>1279.17</ele>
        <time>2019-02-08T13:23:24Z</time>
      </trkpt>
      <trkpt lat="46.20345" lon="6.5774">
        <ele>1278.21</ele>
        <time>2019-02-08T13:23:34Z</time>
      </trkpt>
      <trkpt lat="46.20347" lon="6.57741">
        <ele>1278.21</ele>
        <time>2019-02-08T13:23:52Z</time>
      </trkpt>
      <trkpt lat="46.20352" lon="6.5774">
        <ele>1277.25</ele>
        <time>2019-02-08T13:28:28Z</time>
      </trkpt>
      <trkpt lat="46.20354" lon="6.5774">
        <ele>1277.25</ele>
        <time>2019-02-08T13:29:21Z</time>
      </trkpt>
      <trkpt lat="46.20356" lon="6.5774">
        <ele>1277.73</ele>
        <time>2019-02-08T13:31:15Z</time>
      </trkpt>
      <trkpt lat="46.20358" lon="6.57739">
        <ele>1277.73</ele>
        <time>2019-02-08T13:33:14Z</time>
      </trkpt>
      <trkpt lat="46.20361" lon="6.57741">
        <ele>1278.21</ele>
        <time>2019-02-08T13:33:56Z</time>
      </trkpt>
      <trkpt lat="46.2037" lon="6.57746">
        <ele>1276.77</ele>
        <time>2019-02-08T13:34:06Z</time>
      </trkpt>
      <trkpt lat="46.20381" lon="6.57746">
        <ele>1274.36</ele>
        <time>2019-02-08T13:34:19Z</time>
      </trkpt>
      <trkpt lat="46.2039" lon="6.57744">
        <ele>1271.96</ele>
        <time>2019-02-08T13:34:32Z</time>
      </trkpt>
      <trkpt lat="46.20396" lon="6.57742">
        <ele>1271</ele>
        <time>2019-02-08T13:34:43Z</time>
      </trkpt>
      <trkpt lat="46.20408" lon="6.57746">
        <ele>1268.12</ele>
        <time>2019-02-08T13:34:56Z</time>
      </trkpt>
      <trkpt lat="46.20415" lon="6.57748">
        <ele>1266.19</ele>
        <time>2019-02-08T13:35:08Z</time>
      </trkpt>
      <trkpt lat="46.20421" lon="6.57748">
        <ele>1265.23</ele>
        <time>2019-02-08T13:35:19Z</time>
      </trkpt>
      <trkpt lat="46.20434" lon="6.57751">
        <ele>1261.87</ele>
        <time>2019-02-08T13:35:32Z</time>
      </trkpt>
      <trkpt lat="46.20437" lon="6.57755">
        <ele>1258.98</ele>
        <time>2019-02-08T13:35:44Z</time>
      </trkpt>
      <trkpt lat="46.20443" lon="6.57759">
        <ele>1256.1</ele>
        <time>2019-02-08T13:35:57Z</time>
      </trkpt>
      <trkpt lat="46.20453" lon="6.57757">
        <ele>1253.7</ele>
        <time>2019-02-08T13:36:09Z</time>
      </trkpt>
      <trkpt lat="46.20453" lon="6.57756">
        <ele>1253.7</ele>
        <time>2019-02-08T13:36:10Z</time>
      </trkpt>
      <trkpt lat="46.20462" lon="6.57746">
        <ele>1251.29</ele>
        <time>2019-02-08T13:36:23Z</time>
      </trkpt>
      <trkpt lat="46.20466" lon="6.57743">
        <ele>1249.85</ele>
        <time>2019-02-08T13:36:30Z</time>
      </trkpt>
      <trkpt lat="46.20475" lon="6.57728">
        <ele>1246.49</ele>
        <time>2019-02-08T13:36:45Z</time>
      </trkpt>
      <trkpt lat="46.20476" lon="6.57726">
        <ele>1244.56</ele>
        <time>2019-02-08T13:36:57Z</time>
      </trkpt>
      <trkpt lat="46.20484" lon="6.57733">
        <ele>1242.16</ele>
        <time>2019-02-08T13:37:09Z</time>
      </trkpt>
      <trkpt lat="46.20489" lon="6.57739">
        <ele>1239.76</ele>
        <time>2019-02-08T13:37:20Z</time>
      </trkpt>
      <trkpt lat="46.20493" lon="6.57745">
        <ele>1239.28</ele>
        <time>2019-02-08T13:37:25Z</time>
      </trkpt>
      <trkpt lat="46.20499" lon="6.57756">
        <ele>1236.87</ele>
        <time>2019-02-08T13:37:36Z</time>
      </trkpt>
      <trkpt lat="46.20508" lon="6.57763">
        <ele>1234.47</ele>
        <time>2019-02-08T13:37:49Z</time>
      </trkpt>
      <trkpt lat="46.20515" lon="6.5776">
        <ele>1231.59</ele>
        <time>2019-02-08T13:38:03Z</time>
      </trkpt>
      <trkpt lat="46.20519" lon="6.57753">
        <ele>1229.66</ele>
        <time>2019-02-08T13:38:15Z</time>
      </trkpt>
      <trkpt lat="46.20522" lon="6.57746">
        <ele>1227.26</ele>
        <time>2019-02-08T13:38:29Z</time>
      </trkpt>
      <trkpt lat="46.20522" lon="6.57746">
        <ele>1226.3</ele>
        <time>2019-02-08T13:38:31Z</time>
      </trkpt>
      <trkpt lat="46.20527" lon="6.57731">
        <ele>1223.9</ele>
        <time>2019-02-08T13:38:44Z</time>
      </trkpt>
      <trkpt lat="46.20526" lon="6.57728">
        <ele>1223.9</ele>
        <time>2019-02-08T13:38:46Z</time>
      </trkpt>
      <trkpt lat="46.20535" lon="6.57725">
        <ele>1221.49</ele>
        <time>2019-02-08T13:38:59Z</time>
      </trkpt>
      <trkpt lat="46.20544" lon="6.57735">
        <ele>1218.13</ele>
        <time>2019-02-08T13:39:14Z</time>
      </trkpt>
      <trkpt lat="46.20545" lon="6.57735">
        <ele>1217.65</ele>
        <time>2019-02-08T13:39:15Z</time>
      </trkpt>
      <trkpt lat="46.20549" lon="6.57739">
        <ele>1215.72</ele>
        <time>2019-02-08T13:39:27Z</time>
      </trkpt>
      <trkpt lat="46.2055" lon="6.57742">
        <ele>1213.32</ele>
        <time>2019-02-08T13:39:41Z</time>
      </trkpt>
      <trkpt lat="46.20553" lon="6.57739">
        <ele>1212.36</ele>
        <time>2019-02-08T13:39:58Z</time>
      </trkpt>
      <trkpt lat="46.20554" lon="6.57738">
        <ele>1212.36</ele>
        <time>2019-02-08T13:39:59Z</time>
      </trkpt>
      <trkpt lat="46.20553" lon="6.5773">
        <ele>1211.4</ele>
        <time>2019-02-08T13:40:11Z</time>
      </trkpt>
      <trkpt lat="46.20551" lon="6.5772">
        <ele>1212.36</ele>
        <time>2019-02-08T13:40:22Z</time>
      </trkpt>
      <trkpt lat="46.20547" lon="6.57715">
        <ele>1213.32</ele>
        <time>2019-02-08T13:40:38Z</time>
      </trkpt>
      <trkpt lat="46.20549" lon="6.57702">
        <ele>1212.36</ele>
        <time>2019-02-08T13:40:54Z</time>
      </trkpt>
      <trkpt lat="46.20543" lon="6.57687">
        <ele>1211.4</ele>
        <time>2019-02-08T13:41:09Z</time>
      </trkpt>
      <trkpt lat="46.20539" lon="6.57674">
        <ele>1209.96</ele>
        <time>2019-02-08T13:41:24Z</time>
      </trkpt>
      <trkpt lat="46.2054" lon="6.57662">
        <ele>1208.03</ele>
        <time>2019-02-08T13:41:38Z</time>
      </trkpt>
      <trkpt lat="46.20537" lon="6.57653">
        <ele>1207.07</ele>
        <time>2019-02-08T13:41:50Z</time>
      </trkpt>
      <trkpt lat="46.20535" lon="6.5765">
        <ele>1206.11</ele>
        <time>2019-02-08T13:42:06Z</time>
      </trkpt>
      <trkpt lat="46.20533" lon="6.57648">
        <ele>1205.63</ele>
        <time>2019-02-08T13:42:22Z</time>
      </trkpt>
      <trkpt lat="46.2053" lon="6.5764">
        <ele>1204.67</ele>
        <time>2019-02-08T13:42:35Z</time>
      </trkpt>
      <trkpt lat="46.20521" lon="6.57624">
        <ele>1203.71</ele>
        <time>2019-02-08T13:42:48Z</time>
      </trkpt>
      <trkpt lat="46.20511" lon="6.57608">
        <ele>1201.79</ele>
        <time>2019-02-08T13:43:03Z</time>
      </trkpt>
      <trkpt lat="46.20505" lon="6.57604">
        <ele>1202.27</ele>
        <time>2019-02-08T13:43:13Z</time>
      </trkpt>
      <trkpt lat="46.20501" lon="6.57599">
        <ele>1202.27</ele>
        <time>2019-02-08T13:43:25Z</time>
      </trkpt>
      <trkpt lat="46.20499" lon="6.57599">
        <ele>1202.75</ele>
        <time>2019-02-08T13:43:38Z</time>
      </trkpt>
      <trkpt lat="46.20486" lon="6.57592">
        <ele>1204.19</ele>
        <time>2019-02-08T13:43:49Z</time>
      </trkpt>
      <trkpt lat="46.20482" lon="6.57592">
        <ele>1205.63</ele>
        <time>2019-02-08T13:44:03Z</time>
      </trkpt>
      <trkpt lat="46.20482" lon="6.57592">
        <ele>1206.11</ele>
        <time>2019-02-08T13:44:09Z</time>
      </trkpt>
      <trkpt lat="46.20475" lon="6.57586">
        <ele>1205.63</ele>
        <time>2019-02-08T13:44:25Z</time>
      </trkpt>
      <trkpt lat="46.20475" lon="6.57586">
        <ele>1205.63</ele>
        <time>2019-02-08T13:44:53Z</time>
      </trkpt>
      <trkpt lat="46.20475" lon="6.57586">
        <ele>1206.11</ele>
        <time>2019-02-08T13:45:30Z</time>
      </trkpt>
      <trkpt lat="46.20475" lon="6.57587">
        <ele>1206.11</ele>
        <time>2019-02-08T13:46:08Z</time>
      </trkpt>
      <trkpt lat="46.20475" lon="6.57586">
        <ele>1206.59</ele>
        <time>2019-02-08T13:46:49Z</time>
      </trkpt>
      <trkpt lat="46.20467" lon="6.57581">
        <ele>1208.03</ele>
        <time>2019-02-08T13:47:05Z</time>
      </trkpt>
      <trkpt lat="46.20462" lon="6.5758">
        <ele>1208.03</ele>
        <time>2019-02-08T13:47:20Z</time>
      </trkpt>
      <trkpt lat="46.20453" lon="6.57575">
        <ele>1207.07</ele>
        <time>2019-02-08T13:47:49Z</time>
      </trkpt>
      <trkpt lat="46.20445" lon="6.57569">
        <ele>1207.07</ele>
        <time>2019-02-08T13:48:04Z</time>
      </trkpt>
      <trkpt lat="46.20438" lon="6.57566">
        <ele>1208.51</ele>
        <time>2019-02-08T13:48:15Z</time>
      </trkpt>
      <trkpt lat="46.20433" lon="6.57566">
        <ele>1210.44</ele>
        <time>2019-02-08T13:48:36Z</time>
      </trkpt>
      <trkpt lat="46.20431" lon="6.57566">
        <ele>1210.44</ele>
        <time>2019-02-08T13:48:55Z</time>
      </trkpt>
      <trkpt lat="46.20431" lon="6.57566">
        <ele>1209.96</ele>
        <time>2019-02-08T13:49:26Z</time>
      </trkpt>
      <trkpt lat="46.20431" lon="6.57566">
        <ele>1210.44</ele>
        <time>2019-02-08T13:49:50Z</time>
      </trkpt>
      <trkpt lat="46.20426" lon="6.57562">
        <ele>1209</ele>
        <time>2019-02-08T13:50:03Z</time>
      </trkpt>
      <trkpt lat="46.20421" lon="6.57552">
        <ele>1205.63</ele>
        <time>2019-02-08T13:50:16Z</time>
      </trkpt>
      <trkpt lat="46.20419" lon="6.57545">
        <ele>1203.23</ele>
        <time>2019-02-08T13:50:26Z</time>
      </trkpt>
      <trkpt lat="46.20412" lon="6.57533">
        <ele>1201.3</ele>
        <time>2019-02-08T13:50:40Z</time>
      </trkpt>
      <trkpt lat="46.20405" lon="6.57529">
        <ele>1200.34</ele>
        <time>2019-02-08T13:50:57Z</time>
      </trkpt>
      <trkpt lat="46.20398" lon="6.5752">
        <ele>1200.34</ele>
        <time>2019-02-08T13:51:12Z</time>
      </trkpt>
      <trkpt lat="46.20398" lon="6.5752">
        <ele>1201.3</ele>
        <time>2019-02-08T13:51:35Z</time>
      </trkpt>
      <trkpt lat="46.20398" lon="6.5752">
        <ele>1201.3</ele>
        <time>2019-02-08T13:52:16Z</time>
      </trkpt>
      <trkpt lat="46.20393" lon="6.57501">
        <ele>1198.42</ele>
        <time>2019-02-08T13:53:03Z</time>
      </trkpt>
      <trkpt lat="46.20393" lon="6.57488">
        <ele>1196.02</ele>
        <time>2019-02-08T13:53:10Z</time>
      </trkpt>
      <trkpt lat="46.20392" lon="6.57475">
        <ele>1193.13</ele>
        <time>2019-02-08T13:53:22Z</time>
      </trkpt>
      <trkpt lat="46.20384" lon="6.57467">
        <ele>1194.09</ele>
        <time>2019-02-08T13:53:39Z</time>
      </trkpt>
      <trkpt lat="46.20373" lon="6.57461">
        <ele>1193.61</ele>
        <time>2019-02-08T13:53:53Z</time>
      </trkpt>
      <trkpt lat="46.20366" lon="6.57452">
        <ele>1193.61</ele>
        <time>2019-02-08T13:54:11Z</time>
      </trkpt>
      <trkpt lat="46.20357" lon="6.57442">
        <ele>1193.61</ele>
        <time>2019-02-08T13:54:24Z</time>
      </trkpt>
      <trkpt lat="46.20356" lon="6.5744">
        <ele>1192.65</ele>
        <time>2019-02-08T13:54:30Z</time>
      </trkpt>
      <trkpt lat="46.20353" lon="6.57432">
        <ele>1191.21</ele>
        <time>2019-02-08T13:54:43Z</time>
      </trkpt>
      <trkpt lat="46.20351" lon="6.57416">
        <ele>1189.29</ele>
        <time>2019-02-08T13:54:53Z</time>
      </trkpt>
      <trkpt lat="46.2035" lon="6.57404">
        <ele>1186.4</ele>
        <time>2019-02-08T13:55:11Z</time>
      </trkpt>
      <trkpt lat="46.2035" lon="6.57397">
        <ele>1185.44</ele>
        <time>2019-02-08T13:55:25Z</time>
      </trkpt>
      <trkpt lat="46.2035" lon="6.57397">
        <ele>1185.44</ele>
        <time>2019-02-08T13:56:12Z</time>
      </trkpt>
      <trkpt lat="46.2035" lon="6.57397">
        <ele>1185.92</ele>
        <time>2019-02-08T13:57:44Z</time>
      </trkpt>
      <trkpt lat="46.2035" lon="6.57396">
        <ele>1187.85</ele>
        <time>2019-02-08T14:00:48Z</time>
      </trkpt>
      <trkpt lat="46.20348" lon="6.57387">
        <ele>1187.85</ele>
        <time>2019-02-08T14:01:20Z</time>
      </trkpt>
      <trkpt lat="46.20348" lon="6.57377">
        <ele>1186.4</ele>
        <time>2019-02-08T14:01:37Z</time>
      </trkpt>
      <trkpt lat="46.2035" lon="6.57364">
        <ele>1183.52</ele>
        <time>2019-02-08T14:01:51Z</time>
      </trkpt>
      <trkpt lat="46.20345" lon="6.57349">
        <ele>1182.56</ele>
        <time>2019-02-08T14:02:03Z</time>
      </trkpt>
      <trkpt lat="46.20344" lon="6.57336">
        <ele>1180.64</ele>
        <time>2019-02-08T14:02:16Z</time>
      </trkpt>
      <trkpt lat="46.20343" lon="6.57328">
        <ele>1181.6</ele>
        <time>2019-02-08T14:02:26Z</time>
      </trkpt>
      <trkpt lat="46.20344" lon="6.57319">
        <ele>1180.16</ele>
        <time>2019-02-08T14:02:35Z</time>
      </trkpt>
      <trkpt lat="46.20341" lon="6.57313">
        <ele>1180.16</ele>
        <time>2019-02-08T14:03:01Z</time>
      </trkpt>
      <trkpt lat="46.20341" lon="6.57313">
        <ele>1180.16</ele>
        <time>2019-02-08T14:04:08Z</time>
      </trkpt>
      <trkpt lat="46.2034" lon="6.5731">
        <ele>1179.67</ele>
        <time>2019-02-08T14:05:12Z</time>
      </trkpt>
      <trkpt lat="46.20339" lon="6.57311">
        <ele>1179.19</ele>
        <time>2019-02-08T14:05:58Z</time>
      </trkpt>
      <trkpt lat="46.20337" lon="6.57306">
        <ele>1179.67</ele>
        <time>2019-02-08T14:06:04Z</time>
      </trkpt>
      <trkpt lat="46.20335" lon="6.57301">
        <ele>1179.19</ele>
        <time>2019-02-08T14:06:09Z</time>
      </trkpt>
      <trkpt lat="46.20334" lon="6.57293">
        <ele>1179.67</ele>
        <time>2019-02-08T14:06:15Z</time>
      </trkpt>
      <trkpt lat="46.20332" lon="6.5729">
        <ele>1178.71</ele>
        <time>2019-02-08T14:06:19Z</time>
      </trkpt>
      <trkpt lat="46.2033" lon="6.57275">
        <ele>1178.71</ele>
        <time>2019-02-08T14:06:32Z</time>
      </trkpt>
      <trkpt lat="46.20331" lon="6.57263">
        <ele>1178.71</ele>
        <time>2019-02-08T14:06:43Z</time>
      </trkpt>
      <trkpt lat="46.20331" lon="6.5725">
        <ele>1179.19</ele>
        <time>2019-02-08T14:06:56Z</time>
      </trkpt>
      <trkpt lat="46.20331" lon="6.57238">
        <ele>1179.19</ele>
        <time>2019-02-08T14:07:08Z</time>
      </trkpt>
      <trkpt lat="46.20329" lon="6.57231">
        <ele>1179.67</ele>
        <time>2019-02-08T14:07:16Z</time>
      </trkpt>
      <trkpt lat="46.20325" lon="6.57223">
        <ele>1180.16</ele>
        <time>2019-02-08T14:07:28Z</time>
      </trkpt>
      <trkpt lat="46.20324" lon="6.57222">
        <ele>1180.64</ele>
        <time>2019-02-08T14:07:29Z</time>
      </trkpt>
      <trkpt lat="46.20319" lon="6.57213">
        <ele>1180.64</ele>
        <time>2019-02-08T14:07:40Z</time>
      </trkpt>
      <trkpt lat="46.20317" lon="6.57212">
        <ele>1180.64</ele>
        <time>2019-02-08T14:07:42Z</time>
      </trkpt>
      <trkpt lat="46.20312" lon="6.57198">
        <ele>1179.67</ele>
        <time>2019-02-08T14:07:55Z</time>
      </trkpt>
      <trkpt lat="46.20316" lon="6.5719">
        <ele>1179.19</ele>
        <time>2019-02-08T14:08:06Z</time>
      </trkpt>
      <trkpt lat="46.20318" lon="6.5719">
        <ele>1179.67</ele>
        <time>2019-02-08T14:08:20Z</time>
      </trkpt>
      <trkpt lat="46.20318" lon="6.57191">
        <ele>1179.19</ele>
        <time>2019-02-08T14:08:38Z</time>
      </trkpt>
      <trkpt lat="46.20318" lon="6.5719">
        <ele>1179.19</ele>
        <time>2019-02-08T14:09:10Z</time>
      </trkpt>
      <trkpt lat="46.20317" lon="6.5719">
        <ele>1178.23</ele>
        <time>2019-02-08T14:10:52Z</time>
      </trkpt>
      <trkpt lat="46.20318" lon="6.5719">
        <ele>1180.16</ele>
        <time>2019-02-08T14:15:30Z</time>
      </trkpt>
      <trkpt lat="46.20318" lon="6.57188">
        <ele>1180.16</ele>
        <time>2019-02-08T14:16:28Z</time>
      </trkpt>
      <trkpt lat="46.20319" lon="6.57189">
        <ele>1179.19</ele>
        <time>2019-02-08T14:17:49Z</time>
      </trkpt>
      <trkpt lat="46.20314" lon="6.57193">
        <ele>1180.16</ele>
        <time>2019-02-08T14:18:48Z</time>
      </trkpt>
      <trkpt lat="46.20315" lon="6.572">
        <ele>1180.64</ele>
        <time>2019-02-08T14:18:59Z</time>
      </trkpt>
      <trkpt lat="46.20323" lon="6.57213">
        <ele>1180.64</ele>
        <time>2019-02-08T14:19:13Z</time>
      </trkpt>
      <trkpt lat="46.20324" lon="6.57214">
        <ele>1180.64</ele>
        <time>2019-02-08T14:19:15Z</time>
      </trkpt>
      <trkpt lat="46.20333" lon="6.57229">
        <ele>1180.16</ele>
        <time>2019-02-08T14:19:29Z</time>
      </trkpt>
      <trkpt lat="46.20341" lon="6.57238">
        <ele>1178.23</ele>
        <time>2019-02-08T14:19:41Z</time>
      </trkpt>
      <trkpt lat="46.2035" lon="6.57248">
        <ele>1177.27</ele>
        <time>2019-02-08T14:19:53Z</time>
      </trkpt>
      <trkpt lat="46.20351" lon="6.57249">
        <ele>1177.27</ele>
        <time>2019-02-08T14:19:54Z</time>
      </trkpt>
      <trkpt lat="46.20358" lon="6.5726">
        <ele>1175.83</ele>
        <time>2019-02-08T14:20:05Z</time>
      </trkpt>
      <trkpt lat="46.20361" lon="6.57264">
        <ele>1175.35</ele>
        <time>2019-02-08T14:20:09Z</time>
      </trkpt>
      <trkpt lat="46.20371" lon="6.57275">
        <ele>1174.39</ele>
        <time>2019-02-08T14:20:23Z</time>
      </trkpt>
      <trkpt lat="46.20374" lon="6.57279">
        <ele>1174.87</ele>
        <time>2019-02-08T14:20:28Z</time>
      </trkpt>
      <trkpt lat="46.20381" lon="6.57286">
        <ele>1173.43</ele>
        <time>2019-02-08T14:20:39Z</time>
      </trkpt>
      <trkpt lat="46.2039" lon="6.57292">
        <ele>1172.47</ele>
        <time>2019-02-08T14:20:52Z</time>
      </trkpt>
      <trkpt lat="46.20398" lon="6.57295">
        <ele>1172.47</ele>
        <time>2019-02-08T14:21:02Z</time>
      </trkpt>
      <trkpt lat="46.20403" lon="6.57298">
        <ele>1171.98</ele>
        <time>2019-02-08T14:21:11Z</time>
      </trkpt>
      <trkpt lat="46.20414" lon="6.57305">
        <ele>1171.5</ele>
        <time>2019-02-08T14:21:23Z</time>
      </trkpt>
      <trkpt lat="46.20417" lon="6.57308">
        <ele>1170.54</ele>
        <time>2019-02-08T14:21:28Z</time>
      </trkpt>
      <trkpt lat="46.20429" lon="6.57321">
        <ele>1171.02</ele>
        <time>2019-02-08T14:21:42Z</time>
      </trkpt>
      <trkpt lat="46.20436" lon="6.57322">
        <ele>1170.06</ele>
        <time>2019-02-08T14:21:56Z</time>
      </trkpt>
      <trkpt lat="46.20439" lon="6.57326">
        <ele>1169.1</ele>
        <time>2019-02-08T14:22:55Z</time>
      </trkpt>
      <trkpt lat="46.20443" lon="6.57331">
        <ele>1170.06</ele>
        <time>2019-02-08T14:23:05Z</time>
      </trkpt>
      <trkpt lat="46.20448" lon="6.57338">
        <ele>1170.06</ele>
        <time>2019-02-08T14:23:10Z</time>
      </trkpt>
      <trkpt lat="46.20449" lon="6.57339">
        <ele>1170.06</ele>
        <time>2019-02-08T14:23:11Z</time>
      </trkpt>
      <trkpt lat="46.20451" lon="6.57341">
        <ele>1170.06</ele>
        <time>2019-02-08T14:23:13Z</time>
      </trkpt>
      <trkpt lat="46.2046" lon="6.5735">
        <ele>1169.1</ele>
        <time>2019-02-08T14:23:24Z</time>
      </trkpt>
      <trkpt lat="46.20466" lon="6.57359">
        <ele>1168.62</ele>
        <time>2019-02-08T14:23:33Z</time>
      </trkpt>
      <trkpt lat="46.20481" lon="6.5737">
        <ele>1168.62</ele>
        <time>2019-02-08T14:23:48Z</time>
      </trkpt>
      <trkpt lat="46.20483" lon="6.57371">
        <ele>1168.62</ele>
        <time>2019-02-08T14:23:50Z</time>
      </trkpt>
      <trkpt lat="46.20487" lon="6.57372">
        <ele>1168.62</ele>
        <time>2019-02-08T14:23:54Z</time>
      </trkpt>
      <trkpt lat="46.2049" lon="6.57375">
        <ele>1168.14</ele>
        <time>2019-02-08T14:23:57Z</time>
      </trkpt>
      <trkpt lat="46.205" lon="6.57381">
        <ele>1167.66</ele>
        <time>2019-02-08T14:24:07Z</time>
      </trkpt>
      <trkpt lat="46.20507" lon="6.57388">
        <ele>1167.18</ele>
        <time>2019-02-08T14:24:14Z</time>
      </trkpt>
      <trkpt lat="46.20509" lon="6.57391">
        <ele>1166.7</ele>
        <time>2019-02-08T14:24:17Z</time>
      </trkpt>
      <trkpt lat="46.20518" lon="6.57401">
        <ele>1166.22</ele>
        <time>2019-02-08T14:24:26Z</time>
      </trkpt>
      <trkpt lat="46.20521" lon="6.57406">
        <ele>1165.74</ele>
        <time>2019-02-08T14:24:30Z</time>
      </trkpt>
      <trkpt lat="46.20527" lon="6.57413">
        <ele>1165.26</ele>
        <time>2019-02-08T14:24:36Z</time>
      </trkpt>
      <trkpt lat="46.2053" lon="6.57415">
        <ele>1165.26</ele>
        <time>2019-02-08T14:24:38Z</time>
      </trkpt>
      <trkpt lat="46.20542" lon="6.57435">
        <ele>1165.26</ele>
        <time>2019-02-08T14:24:53Z</time>
      </trkpt>
      <trkpt lat="46.20546" lon="6.57443">
        <ele>1165.74</ele>
        <time>2019-02-08T14:24:59Z</time>
      </trkpt>
      <trkpt lat="46.20549" lon="6.57448">
        <ele>1166.22</ele>
        <time>2019-02-08T14:25:03Z</time>
      </trkpt>
      <trkpt lat="46.20559" lon="6.57461">
        <ele>1167.18</ele>
        <time>2019-02-08T14:25:15Z</time>
      </trkpt>
      <trkpt lat="46.20575" lon="6.57476">
        <ele>1167.66</ele>
        <time>2019-02-08T14:25:31Z</time>
      </trkpt>
      <trkpt lat="46.20581" lon="6.57483">
        <ele>1168.62</ele>
        <time>2019-02-08T14:25:38Z</time>
      </trkpt>
      <trkpt lat="46.20585" lon="6.57489">
        <ele>1167.66</ele>
        <time>2019-02-08T14:25:43Z</time>
      </trkpt>
      <trkpt lat="46.20587" lon="6.57493">
        <ele>1169.1</ele>
        <time>2019-02-08T14:25:46Z</time>
      </trkpt>
      <trkpt lat="46.20596" lon="6.57507">
        <ele>1170.06</ele>
        <time>2019-02-08T14:25:59Z</time>
      </trkpt>
      <trkpt lat="46.20605" lon="6.57521">
        <ele>1170.06</ele>
        <time>2019-02-08T14:26:12Z</time>
      </trkpt>
      <trkpt lat="46.20607" lon="6.57523">
        <ele>1170.54</ele>
        <time>2019-02-08T14:26:14Z</time>
      </trkpt>
      <trkpt lat="46.20614" lon="6.57535">
        <ele>1171.02</ele>
        <time>2019-02-08T14:26:25Z</time>
      </trkpt>
      <trkpt lat="46.20622" lon="6.5755">
        <ele>1171.5</ele>
        <time>2019-02-08T14:26:38Z</time>
      </trkpt>
      <trkpt lat="46.20627" lon="6.57561">
        <ele>1172.47</ele>
        <time>2019-02-08T14:26:48Z</time>
      </trkpt>
      <trkpt lat="46.20635" lon="6.57574">
        <ele>1171.98</ele>
        <time>2019-02-08T14:27:01Z</time>
      </trkpt>
      <trkpt lat="46.20643" lon="6.57582">
        <ele>1172.47</ele>
        <time>2019-02-08T14:27:15Z</time>
      </trkpt>
      <trkpt lat="46.20648" lon="6.5759">
        <ele>1173.43</ele>
        <time>2019-02-08T14:27:25Z</time>
      </trkpt>
      <trkpt lat="46.20655" lon="6.57599">
        <ele>1173.43</ele>
        <time>2019-02-08T14:27:37Z</time>
      </trkpt>
      <trkpt lat="46.2066" lon="6.57611">
        <ele>1173.43</ele>
        <time>2019-02-08T14:27:50Z</time>
      </trkpt>
      <trkpt lat="46.2066" lon="6.57612">
        <ele>1173.43</ele>
        <time>2019-02-08T14:27:51Z</time>
      </trkpt>
      <trkpt lat="46.20665" lon="6.57622">
        <ele>1173.91</ele>
        <time>2019-02-08T14:28:04Z</time>
      </trkpt>
      <trkpt lat="46.20666" lon="6.57638">
        <ele>1173.43</ele>
        <time>2019-02-08T14:28:17Z</time>
      </trkpt>
      <trkpt lat="46.20668" lon="6.57644">
        <ele>1173.43</ele>
        <time>2019-02-08T14:28:29Z</time>
      </trkpt>
      <trkpt lat="46.20668" lon="6.57643">
        <ele>1172.47</ele>
        <time>2019-02-08T14:29:36Z</time>
      </trkpt>
      <trkpt lat="46.20668" lon="6.57643">
        <ele>1172.47</ele>
        <time>2019-02-08T14:29:54Z</time>
      </trkpt>
      <trkpt lat="46.20669" lon="6.57643">
        <ele>1171.5</ele>
        <time>2019-02-08T14:30:59Z</time>
      </trkpt>
      <trkpt lat="46.20669" lon="6.57644">
        <ele>1170.54</ele>
        <time>2019-02-08T14:31:36Z</time>
      </trkpt>
      <trkpt lat="46.20669" lon="6.57644">
        <ele>1170.06</ele>
        <time>2019-02-08T14:31:56Z</time>
      </trkpt>
      <trkpt lat="46.20672" lon="6.57645">
        <ele>1168.14</ele>
        <time>2019-02-08T14:32:44Z</time>
      </trkpt>
      <trkpt lat="46.20672" lon="6.57645">
        <ele>1167.18</ele>
        <time>2019-02-08T14:32:57Z</time>
      </trkpt>
      <trkpt lat="46.20672" lon="6.57645">
        <ele>1166.7</ele>
        <time>2019-02-08T14:32:58Z</time>
      </trkpt>
      <trkpt lat="46.20681" lon="6.57641">
        <ele>1163.81</ele>
        <time>2019-02-08T14:33:02Z</time>
      </trkpt>
      <trkpt lat="46.20689" lon="6.57639">
        <ele>1160.93</ele>
        <time>2019-02-08T14:33:05Z</time>
      </trkpt>
      <trkpt lat="46.20693" lon="6.57641">
        <ele>1160.93</ele>
        <time>2019-02-08T14:33:17Z</time>
      </trkpt>
      <trkpt lat="46.20697" lon="6.5764">
        <ele>1160.45</ele>
        <time>2019-02-08T14:33:28Z</time>
      </trkpt>
      <trkpt lat="46.20699" lon="6.57639">
        <ele>1159.97</ele>
        <time>2019-02-08T14:33:39Z</time>
      </trkpt>
      <trkpt lat="46.20699" lon="6.57638">
        <ele>1159.97</ele>
        <time>2019-02-08T14:34:15Z</time>
      </trkpt>
      <trkpt lat="46.207" lon="6.5764">
        <ele>1159.97</ele>
        <time>2019-02-08T14:34:26Z</time>
      </trkpt>
      <trkpt lat="46.207" lon="6.57639">
        <ele>1159.01</ele>
        <time>2019-02-08T14:35:28Z</time>
      </trkpt>
      <trkpt lat="46.20703" lon="6.5764">
        <ele>1159.01</ele>
        <time>2019-02-08T14:36:35Z</time>
      </trkpt>
      <trkpt lat="46.20706" lon="6.57644">
        <ele>1158.53</ele>
        <time>2019-02-08T14:36:42Z</time>
      </trkpt>
      <trkpt lat="46.20709" lon="6.57646">
        <ele>1158.05</ele>
        <time>2019-02-08T14:36:46Z</time>
      </trkpt>
      <trkpt lat="46.20717" lon="6.57648">
        <ele>1156.6</ele>
        <time>2019-02-08T14:36:59Z</time>
      </trkpt>
      <trkpt lat="46.20717" lon="6.57648">
        <ele>1155.64</ele>
        <time>2019-02-08T14:37:00Z</time>
      </trkpt>
      <trkpt lat="46.20722" lon="6.57649">
        <ele>1154.68</ele>
        <time>2019-02-08T14:37:07Z</time>
      </trkpt>
      <trkpt lat="46.20729" lon="6.57659">
        <ele>1154.2</ele>
        <time>2019-02-08T14:37:20Z</time>
      </trkpt>
      <trkpt lat="46.20735" lon="6.57661">
        <ele>1153.24</ele>
        <time>2019-02-08T14:37:32Z</time>
      </trkpt>
      <trkpt lat="46.20736" lon="6.5766">
        <ele>1152.28</ele>
        <time>2019-02-08T14:37:56Z</time>
      </trkpt>
      <trkpt lat="46.20738" lon="6.57658">
        <ele>1152.28</ele>
        <time>2019-02-08T14:38:11Z</time>
      </trkpt>
      <trkpt lat="46.2074" lon="6.57658">
        <ele>1152.28</ele>
        <time>2019-02-08T14:40:35Z</time>
      </trkpt>
      <trkpt lat="46.20742" lon="6.57656">
        <ele>1152.28</ele>
        <time>2019-02-08T14:41:56Z</time>
      </trkpt>
      <trkpt lat="46.20748" lon="6.57651">
        <ele>1151.32</ele>
        <time>2019-02-08T14:42:03Z</time>
      </trkpt>
      <trkpt lat="46.20759" lon="6.57646">
        <ele>1149.87</ele>
        <time>2019-02-08T14:42:16Z</time>
      </trkpt>
      <trkpt lat="46.20766" lon="6.57639">
        <ele>1148.91</ele>
        <time>2019-02-08T14:42:25Z</time>
      </trkpt>
      <trkpt lat="46.20769" lon="6.57637">
        <ele>1148.43</ele>
        <time>2019-02-08T14:42:28Z</time>
      </trkpt>
      <trkpt lat="46.20772" lon="6.57636">
        <ele>1147.95</ele>
        <time>2019-02-08T14:42:31Z</time>
      </trkpt>
      <trkpt lat="46.20773" lon="6.57633">
        <ele>1147.47</ele>
        <time>2019-02-08T14:42:33Z</time>
      </trkpt>
      <trkpt lat="46.20777" lon="6.57632">
        <ele>1146.99</ele>
        <time>2019-02-08T14:42:37Z</time>
      </trkpt>
      <trkpt lat="46.2078" lon="6.5763">
        <ele>1146.51</ele>
        <time>2019-02-08T14:42:40Z</time>
      </trkpt>
      <trkpt lat="46.20782" lon="6.57628">
        <ele>1146.03</ele>
        <time>2019-02-08T14:42:43Z</time>
      </trkpt>
      <trkpt lat="46.20791" lon="6.57612">
        <ele>1144.11</ele>
        <time>2019-02-08T14:42:57Z</time>
      </trkpt>
      <trkpt lat="46.20799" lon="6.57599">
        <ele>1142.18</ele>
        <time>2019-02-08T14:43:10Z</time>
      </trkpt>
      <trkpt lat="46.20808" lon="6.57601">
        <ele>1140.74</ele>
        <time>2019-02-08T14:43:23Z</time>
      </trkpt>
      <trkpt lat="46.20813" lon="6.57615">
        <ele>1140.26</ele>
        <time>2019-02-08T14:43:35Z</time>
      </trkpt>
      <trkpt lat="46.20817" lon="6.57626">
        <ele>1138.82</ele>
        <time>2019-02-08T14:43:44Z</time>
      </trkpt>
      <trkpt lat="46.20823" lon="6.57641">
        <ele>1137.86</ele>
        <time>2019-02-08T14:43:56Z</time>
      </trkpt>
      <trkpt lat="46.20824" lon="6.57642">
        <ele>1136.42</ele>
        <time>2019-02-08T14:43:57Z</time>
      </trkpt>
      <trkpt lat="46.20828" lon="6.57649">
        <ele>1135.94</ele>
        <time>2019-02-08T14:44:03Z</time>
      </trkpt>
      <trkpt lat="46.20832" lon="6.57655">
        <ele>1134.97</ele>
        <time>2019-02-08T14:44:10Z</time>
      </trkpt>
      <trkpt lat="46.20837" lon="6.57664">
        <ele>1133.53</ele>
        <time>2019-02-08T14:44:17Z</time>
      </trkpt>
      <trkpt lat="46.20838" lon="6.57668">
        <ele>1133.53</ele>
        <time>2019-02-08T14:44:20Z</time>
      </trkpt>
      <trkpt lat="46.2084" lon="6.57673">
        <ele>1133.53</ele>
        <time>2019-02-08T14:44:23Z</time>
      </trkpt>
      <trkpt lat="46.20843" lon="6.57679">
        <ele>1133.05</ele>
        <time>2019-02-08T14:44:27Z</time>
      </trkpt>
      <trkpt lat="46.20846" lon="6.57691">
        <ele>1131.61</ele>
        <time>2019-02-08T14:44:35Z</time>
      </trkpt>
      <trkpt lat="46.20848" lon="6.57695">
        <ele>1131.13</ele>
        <time>2019-02-08T14:44:38Z</time>
      </trkpt>
      <trkpt lat="46.20852" lon="6.57699">
        <ele>1130.17</ele>
        <time>2019-02-08T14:44:44Z</time>
      </trkpt>
      <trkpt lat="46.20861" lon="6.57702">
        <ele>1127.28</ele>
        <time>2019-02-08T14:44:55Z</time>
      </trkpt>
      <trkpt lat="46.20867" lon="6.57703">
        <ele>1126.32</ele>
        <time>2019-02-08T14:45:06Z</time>
      </trkpt>
      <trkpt lat="46.20875" lon="6.57697">
        <ele>1125.36</ele>
        <time>2019-02-08T14:45:17Z</time>
      </trkpt>
      <trkpt lat="46.20878" lon="6.57692">
        <ele>1124.88</ele>
        <time>2019-02-08T14:45:23Z</time>
      </trkpt>
      <trkpt lat="46.20882" lon="6.57688">
        <ele>1124.4</ele>
        <time>2019-02-08T14:45:27Z</time>
      </trkpt>
      <trkpt lat="46.20886" lon="6.57681">
        <ele>1124.88</ele>
        <time>2019-02-08T14:45:34Z</time>
      </trkpt>
      <trkpt lat="46.2089" lon="6.57676">
        <ele>1124.88</ele>
        <time>2019-02-08T14:45:47Z</time>
      </trkpt>
      <trkpt lat="46.2089" lon="6.57676">
        <ele>1124.88</ele>
        <time>2019-02-08T14:45:58Z</time>
      </trkpt>
      <trkpt lat="46.2089" lon="6.57665">
        <ele>1123.44</ele>
        <time>2019-02-08T14:46:08Z</time>
      </trkpt>
      <trkpt lat="46.20881" lon="6.5765">
        <ele>1122.96</ele>
        <time>2019-02-08T14:46:19Z</time>
      </trkpt>
      <trkpt lat="46.20874" lon="6.57644">
        <ele>1122.96</ele>
        <time>2019-02-08T14:46:32Z</time>
      </trkpt>
      <trkpt lat="46.20877" lon="6.57642">
        <ele>1122.96</ele>
        <time>2019-02-08T14:46:45Z</time>
      </trkpt>
      <trkpt lat="46.20882" lon="6.57635">
        <ele>1122.96</ele>
        <time>2019-02-08T14:46:55Z</time>
      </trkpt>
      <trkpt lat="46.20882" lon="6.57634">
        <ele>1122.96</ele>
        <time>2019-02-08T14:46:56Z</time>
      </trkpt>
      <trkpt lat="46.20886" lon="6.57634">
        <ele>1122.96</ele>
        <time>2019-02-08T14:47:03Z</time>
      </trkpt>
      <trkpt lat="46.20876" lon="6.57638">
        <ele>1122.48</ele>
        <time>2019-02-08T14:47:17Z</time>
      </trkpt>
      <trkpt lat="46.20876" lon="6.57639">
        <ele>1122.96</ele>
        <time>2019-02-08T14:47:25Z</time>
      </trkpt>
      <trkpt lat="46.20876" lon="6.57639">
        <ele>1121.52</ele>
        <time>2019-02-08T14:48:06Z</time>
      </trkpt>
      <trkpt lat="46.20876" lon="6.57639">
        <ele>1123.44</ele>
        <time>2019-02-08T14:48:08Z</time>
      </trkpt>
      <trkpt lat="46.20879" lon="6.57638">
        <ele>1122</ele>
        <time>2019-02-08T14:48:09Z</time>
      </trkpt>
      <trkpt lat="46.20884" lon="6.57635">
        <ele>1122</ele>
        <time>2019-02-08T14:48:24Z</time>
      </trkpt>
    </trkseg>
  </trk>
</gpx>